M I D A S
Marine Information and Data Acquisition System
Tripno 1809 of the Zeeleeuw from 2009-11-30 07:32:40 to 2009-11-30 12:04:37
Back to CruiseResearch ActivitiesStationsMapUnderway DataData graphs

EquipmentUnitsComment
TimeDGPSUTC
LatitudeDGPSDM.mWGS84
LongitudeDGPSDM.mWGS84
TemperatureSBE03/SBE38deg celciusITS90
ConductivitySBE21S/mITS90
SalinitySBE21 Practical Salinity Units
ChlorophylAChelsea fluorimeterg/lCalibrated in Aceton
Missing or incorrect values are displayed as -999
Sea surface data collected by the RV Zeeleeuw from 2009-11-30 07:25:11 to 2009-12-07 12:04:36
                                                                                    Next 1000 lines
Time Latitude Longitude Temperature Conductivity Salinity ChlorophylA
2009-11-30 07:25:21 51°13.662 2°55.96 15.1639 0.030785 0.184971 -1.488105
2009-11-30 07:25:25 51°13.662 2°55.96 15.1104 0.030785 0.184975 -1.488105
2009-11-30 07:25:31 51°13.663 2°55.961 15.1187 0.030888 0.185608 -1.488105
2009-11-30 07:25:36 51°13.663 2°55.961 15.1294 0.030785 0.184986 -1.488105
2009-11-30 07:25:41 51°13.663 2°55.961 15.1139 0.030785 0.184986 -1.488105
2009-11-30 07:25:46 51°13.662 2°55.961 15.1252 0.030785 0.184986 -1.488105
2009-11-30 07:25:51 51°13.662 2°55.961 15.1122 0.030785 0.184993 -1.488105
2009-11-30 07:25:56 51°13.662 2°55.961 15.1493 0.030785 0.184997 -1.488105
2009-11-30 07:26:01 51°13.662 2°55.961 15.1411 0.030888 0.185633 -1.488105
2009-11-30 07:26:06 51°13.662 2°55.961 15.1377 0.030888 0.185633 -1.488105
2009-11-30 07:26:11 51°13.662 2°55.961 15.1334 0.030785 0.185008 -1.488105
2009-11-30 07:26:16 51°13.663 2°55.961 15.1286 0.030785 0.185008 -1.488105
2009-11-30 07:26:21 51°13.663 2°55.961 15.1251 0.030785 0.185015 -1.488105
2009-11-30 07:26:25 51°13.662 2°55.961 15.1262 0.030888 0.185644 -1.488105
2009-11-30 07:26:31 51°13.662 2°55.96 15.1379 0.030785 0.185019 -1.488105
2009-11-30 07:26:36 51°13.661 2°55.96 15.1345 0.030785 0.185029 -1.488105
2009-11-30 07:26:41 51°13.661 2°55.96 15.1306 0.030991 0.186292 -1.488105
2009-11-30 07:26:46 51°13.661 2°55.96 15.1253 0.030991 0.186292 -1.488105
2009-11-30 07:26:51 51°13.661 2°55.96 15.0985 0.030888 0.185662 -1.488105
2009-11-30 07:26:56 51°13.66 2°55.96 14.866 0.030477 0.183139 -1.488105
2009-11-30 07:27:01 51°13.661 2°55.959 14.7849 0.030271 0.181852 -1.488105
2009-11-30 07:27:05 51°13.661 2°55.956 14.9753 0.029859 0.179342 -1.488105
2009-11-30 07:27:11 51°13.663 2°55.952 14.9699 0.029859 0.179346 -1.488105
2009-11-30 07:27:16 51°13.664 2°55.947 14.9672 0.029859 0.179346 -1.488105
2009-11-30 07:27:21 51°13.666 2°55.942 14.9578 0.029962 0.179985 -1.488105
2009-11-30 07:27:27 51°13.668 2°55.934 15.002 0.029859 0.179349 -1.488105
2009-11-30 07:27:33 51°13.671 2°55.925 15.0339 0.029859 0.179349 -1.488105
2009-11-30 07:27:39 51°13.673 2°55.915 15.0357 0.030168 0.181245 -1.488105
2009-11-30 07:27:45 51°13.675 2°55.904 15.0404 0.030271 0.181881 -1.488105
2009-11-30 07:27:49 51°13.677 2°55.896 15.0505 0.030271 0.181881 -1.488105
2009-11-30 07:27:55 51°13.679 2°55.886 15.0657 0.030477 0.183149 -1.488105
2009-11-30 07:28:00 51°13.681 2°55.877 15.0641 0.03058 0.183793 -1.488105
2009-11-30 07:28:05 51°13.682 2°55.868 15.0578 0.03058 0.183804 -1.488105
2009-11-30 07:28:09 51°13.683 2°55.862 15.0674 0.03058 0.183807 -1.488105
2009-11-30 07:28:15 51°13.685 2°55.852 15.0651 0.03058 0.183811 -1.488105
2009-11-30 07:28:20 51°13.686 2°55.844 15.0662 0.03058 0.183811 -1.488105
2009-11-30 07:28:25 51°13.688 2°55.836 15.0645 0.030477 0.183189 -1.488105
2009-11-30 07:28:30 51°13.689 2°55.828 15.064 0.030477 0.183193 -1.488105
2009-11-30 07:28:35 51°13.691 2°55.82 15.0641 0.03058 0.183829 -1.488105
2009-11-30 07:28:40 51°13.692 2°55.813 15.0641 0.030477 0.183204 -1.488105
2009-11-30 07:28:45 51°13.693 2°55.806 15.0636 0.030477 0.183207 -1.488105
2009-11-30 07:28:49 51°13.694 2°55.8 15.0623 0.030477 0.183207 -1.488105
2009-11-30 07:28:55 51°13.695 2°55.792 15.0619 0.030477 0.183211 -1.488105
2009-11-30 07:29:00 51°13.696 2°55.786 15.0601 0.030477 0.183218 -1.488105
2009-11-30 07:29:04 51°13.696 2°55.781 15.0607 0.030477 0.183218 -1.488105
2009-11-30 07:29:09 51°13.697 2°55.774 15.0611 0.03058 0.183855 -1.488105
2009-11-30 07:29:14 51°13.697 2°55.768 15.0615 0.030477 0.183232 -1.488105
2009-11-30 07:29:19 51°13.698 2°55.763 15.0616 0.030477 0.183232 -1.488105
2009-11-30 07:29:24 51°13.698 2°55.758 15.0727 0.03058 0.183869 -1.488105
2009-11-30 07:29:29 51°13.698 2°55.754 15.0918 0.030785 0.185146 -1.488105
2009-11-30 07:29:34 51°13.699 2°55.751 15.0759 0.030991 0.186424 -1.488105
2009-11-30 07:29:39 51°13.699 2°55.749 15.0818 0.030785 0.185165 -1.488105
2009-11-30 07:29:44 51°13.699 2°55.748 15.0744 0.030786 0.185168 -1.488105
2009-11-30 07:29:48 51°13.7 2°55.747 15.0762 0.030786 0.185168 -1.488105
2009-11-30 07:29:53 51°13.7 2°55.746 15.0743 0.030683 0.184542 -1.488105
2009-11-30 07:29:58 51°13.701 2°55.745 15.0755 0.030683 0.184542 -1.488105
2009-11-30 07:30:03 51°13.701 2°55.745 15.0528 0.030683 0.184542 -1.488105
2009-11-30 07:30:08 51°13.702 2°55.745 15.0599 0.03058 0.183905 -1.488105
2009-11-30 07:30:13 51°13.703 2°55.744 15.0393 0.030374 0.182643 -1.488105
2009-11-30 07:30:18 51°13.703 2°55.744 15.0492 0.030374 0.182643 -1.488105
2009-11-30 07:30:23 51°13.703 2°55.743 15.0505 0.030374 0.182639 -1.488105
2009-11-30 07:30:28 51°13.703 2°55.742 15.0475 0.030477 0.183269 -1.488105
2009-11-30 07:30:33 51°13.703 2°55.74 15.0205 0.030168 0.181384 -1.488105
2009-11-30 07:30:37 51°13.703 2°55.739 15.0329 0.030271 0.18201 -1.488105
2009-11-30 07:30:43 51°13.702 2°55.737 15.041 0.030374 0.182643 -1.488105
2009-11-30 07:30:47 51°13.701 2°55.735 15.033 0.030374 0.182643 -1.488105
2009-11-30 07:30:52 51°13.7 2°55.734 15.0659 0.030271 0.182017 -1.488105
2009-11-30 07:30:57 51°13.698 2°55.732 15.064 0.030477 0.183287 -1.488105
2009-11-30 07:31:02 51°13.697 2°55.731 15.0856 0.03058 0.183931 -1.488105
2009-11-30 07:31:07 51°13.696 2°55.729 15.1082 0.030888 0.185839 -1.488105
2009-11-30 07:31:12 51°13.695 2°55.728 15.1166 0.031609 0.190293 -1.488105
2009-11-30 07:31:17 51°13.696 2°55.728 15.121 0.031609 0.190293 -1.488105
2009-11-30 07:31:22 51°13.697 2°55.728 15.1129 0.031609 0.190319 -1.488105
2009-11-30 07:31:27 51°13.699 2°55.727 15.113 0.031403 0.189057 -1.488105
2009-11-30 07:31:32 51°13.701 2°55.726 15.1146 0.031403 0.189061 -1.488105
2009-11-30 07:31:37 51°13.703 2°55.726 15.1148 0.031094 0.187169 -1.488105
2009-11-30 07:31:41 51°13.705 2°55.725 15.1172 0.031609 0.19033 -1.488105
2009-11-30 07:31:47 51°13.709 2°55.723 15.1132 0.031609 0.19033 -1.488105
2009-11-30 07:31:52 51°13.714 2°55.72 15.1089 0.031197 0.187803 -1.488105
2009-11-30 07:31:56 51°13.718 2°55.718 15.1038 0.031094 0.187169 -1.488105
2009-11-30 07:32:01 51°13.723 2°55.714 15.0873 0.030888 0.185897 -1.488105
2009-11-30 07:32:06 51°13.729 2°55.71 15.0581 0.030683 0.184626 -1.488105
2009-11-30 07:32:11 51°13.735 2°55.705 15.051 0.030374 0.182722 -1.488105
2009-11-30 07:32:16 51°13.742 2°55.7 14.9873 0.030374 0.182722 -1.488105
2009-11-30 07:32:21 51°13.749 2°55.694 14.9654 0.030168 0.181449 -1.488105
2009-11-30 07:32:25 51°13.755 2°55.689 14.9605 0.029962 0.18018 -1.488105
2009-11-30 07:32:31 51°13.765 2°55.681 14.9397 0.029962 0.180176 -1.488105
2009-11-30 07:32:36 51°13.773 2°55.675 14.9244 0.029654 0.178286 -1.488105
2009-11-30 07:32:41 51°13.781 2°55.668 14.9172 0.029962 0.180176 -1.488105
2009-11-30 07:32:46 51°13.79 2°55.661 14.9627 0.029962 0.180176 -1.488105
2009-11-30 07:32:51 51°13.799 2°55.655 14.9538 0.029859 0.179558 -1.488105
2009-11-30 07:32:56 51°13.807 2°55.647 14.9649 0.029756 0.178932 -1.488105
2009-11-30 07:33:01 51°13.816 2°55.641 14.9728 0.029859 0.179565 -1.488105
2009-11-30 07:33:06 51°13.826 2°55.633 14.9717 0.029654 0.17831 -1.488105
2009-11-30 07:33:11 51°13.835 2°55.626 14.9816 0.029859 0.179575 -1.488105
2009-11-30 07:33:16 51°13.844 2°55.619 14.9763 0.029859 0.179575 -1.488105
2009-11-30 07:33:21 51°13.854 2°55.612 14.9718 0.029654 0.178317 -1.488105
2009-11-30 07:33:26 51°13.863 2°55.605 14.9048 0.029756 0.178953 -1.488105
2009-11-30 07:33:31 51°13.873 2°55.598 14.9544 0.029654 0.178324 -1.488105
2009-11-30 07:33:36 51°13.883 2°55.589 14.9593 0.029654 0.178328 -1.488105
2009-11-30 07:33:41 51°13.892 2°55.583 15.0093 0.029654 0.178335 -1.488105
2009-11-30 07:33:46 51°13.902 2°55.575 14.9968 0.029654 0.178335 -1.488105
2009-11-30 07:33:51 51°13.912 2°55.568 15.018 0.029859 0.1796 -1.488105
2009-11-30 07:33:56 51°13.922 2°55.56 14.9614 0.029756 0.178981 -1.488105
2009-11-30 07:34:01 51°13.932 2°55.552 14.9555 0.029551 0.177716 -1.488105
2009-11-30 07:34:06 51°13.943 2°55.543 14.9549 0.029448 0.177088 -1.488105
2009-11-30 07:34:11 51°13.954 2°55.535 14.9839 0.029654 0.178352 -1.488105
2009-11-30 07:34:16 51°13.965 2°55.527 15.0345 0.029654 0.178352 -1.488105
2009-11-30 07:34:21 51°13.976 2°55.519 14.9382 0.029551 0.177734 -1.488105
2009-11-30 07:34:25 51°13.985 2°55.512 14.9381 0.029139 0.175215 -1.488105
2009-11-30 07:34:31 51°13.998 2°55.502 14.9838 0.029345 0.176473 -1.488105
2009-11-30 07:34:36 51°14.009 2°55.494 14.9668 0.029345 0.17648 -1.488105
2009-11-30 07:34:41 51°14.02 2°55.485 14.9669 0.029242 0.175854 -1.488105
2009-11-30 07:34:45 51°14.029 2°55.479 14.9834 0.029242 0.175854 -1.488105
2009-11-30 07:34:51 51°14.043 2°55.469 14.9781 0.029242 0.175858 -1.488105
2009-11-30 07:34:56 51°14.054 2°55.461 14.988 0.029448 0.177119 -1.488105
2009-11-30 07:35:01 51°14.066 2°55.453 15.0314 0.029242 0.175865 -1.522929
2009-11-30 07:35:05 51°14.075 2°55.446 14.9402 0.029036 0.174611 -1.488105
2009-11-30 07:35:11 51°14.088 2°55.436 14.982 0.029448 0.177129 -1.488105
2009-11-30 07:35:16 51°14.1 2°55.427 14.993 0.029448 0.177129 -1.488105
2009-11-30 07:35:21 51°14.111 2°55.418 15.0161 0.029242 0.175875 -1.488105
2009-11-30 07:35:26 51°14.123 2°55.41 14.9956 0.029448 0.17714 -1.488105
2009-11-30 07:35:31 51°14.134 2°55.401 15.012 0.029242 0.175886 -1.488105
2009-11-30 07:35:36 51°14.146 2°55.392 15.0278 0.029242 0.175889 -1.488105
2009-11-30 07:35:41 51°14.157 2°55.382 15.0272 0.029654 0.178419 -1.488105
2009-11-30 07:35:46 51°14.168 2°55.373 15.0592 0.029654 0.178419 -1.488105
2009-11-30 07:35:51 51°14.179 2°55.363 15.0707 0.029654 0.178433 -1.488105
2009-11-30 07:35:56 51°14.19 2°55.352 15.0599 0.029551 0.177818 -1.488105
2009-11-30 07:36:01 51°14.2 2°55.34 15.0495 0.029345 0.176556 -1.488105
2009-11-30 07:36:05 51°14.208 2°55.33 15.0665 0.029859 0.179717 -1.488105
2009-11-30 07:36:11 51°14.22 2°55.316 15.0775 0.030065 0.180987 -1.488105
2009-11-30 07:36:16 51°14.23 2°55.303 15.0688 0.030065 0.180987 -1.488105
2009-11-30 07:36:21 51°14.239 2°55.289 15.0428 0.029859 0.179735 -1.488105
2009-11-30 07:36:25 51°14.247 2°55.277 15.0648 0.030168 0.181635 -1.488105
2009-11-30 07:36:31 51°14.257 2°55.26 14.976 0.029551 0.177856 -1.488105
2009-11-30 07:36:36 51°14.266 2°55.245 14.8966 0.029654 0.178472 -1.488105
2009-11-30 07:36:41 51°14.274 2°55.229 15.0297 0.029654 0.178482 -1.488105
2009-11-30 07:36:46 51°14.283 2°55.214 15.001 0.029654 0.178482 -1.488105
2009-11-30 07:36:51 51°14.291 2°55.197 14.9381 0.029345 0.176598 -1.488105
2009-11-30 07:36:56 51°14.299 2°55.181 15.0055 0.029448 0.177224 -1.488105
2009-11-30 07:37:01 51°14.308 2°55.165 15.0082 0.029448 0.177231 -1.488105
2009-11-30 07:37:05 51°14.314 2°55.151 14.8916 0.029139 0.175343 -1.488105
2009-11-30 07:37:11 51°14.324 2°55.131 14.9368 0.029139 0.175346 -1.488105
2009-11-30 07:37:16 51°14.332 2°55.115 14.9223 0.029139 0.175346 -1.488105
2009-11-30 07:37:21 51°14.341 2°55.098 14.9455 0.029036 0.174724 -1.488105
2009-11-30 07:37:25 51°14.348 2°55.085 14.9448 0.029139 0.17536 -1.488105
2009-11-30 07:37:31 51°14.359 2°55.066 14.9093 0.029242 0.175989 -1.488105
2009-11-30 07:37:36 51°14.369 2°55.05 14.9185 0.029036 0.174731 -1.488105
2009-11-30 07:37:41 51°14.379 2°55.036 14.8264 0.028933 0.174106 -1.488105
2009-11-30 07:37:45 51°14.387 2°55.024 14.903 0.028933 0.174106 -1.488105
2009-11-30 07:37:51 51°14.4 2°55.008 14.9043 0.028933 0.174106 -1.488105
2009-11-30 07:37:56 51°14.411 2°54.995 14.9291 0.028933 0.174085 -1.488105
2009-11-30 07:38:01 51°14.422 2°54.983 14.9756 0.029036 0.174711 -1.488105
2009-11-30 07:38:06 51°14.434 2°54.971 14.948 0.028933 0.174099 -1.488105
2009-11-30 07:38:11 51°14.445 2°54.959 14.8627 0.029139 0.175364 -1.488105
2009-11-30 07:38:16 51°14.458 2°54.948 14.9243 0.029139 0.175364 -1.488105
2009-11-30 07:38:21 51°14.47 2°54.937 14.9533 0.029139 0.175371 -1.488105
2009-11-30 07:38:26 51°14.483 2°54.927 14.9062 0.029139 0.175388 -1.488105
2009-11-30 07:38:31 51°14.496 2°54.917 14.8828 0.028933 0.174137 -1.488105
2009-11-30 07:38:36 51°14.509 2°54.907 14.9167 0.029036 0.174769 -1.488105
2009-11-30 07:38:41 51°14.522 2°54.898 14.8997 0.028933 0.174137 -1.488105
2009-11-30 07:38:45 51°14.533 2°54.892 14.9097 0.028933 0.174137 -1.488105
2009-11-30 07:38:51 51°14.55 2°54.884 14.9248 0.029036 0.174773 -1.522929
2009-11-30 07:38:56 51°14.565 2°54.878 14.9421 0.029242 0.176083 -1.488105
2009-11-30 07:39:01 51°14.579 2°54.872 14.868 0.029242 0.1761 -1.488105
2009-11-30 07:39:06 51°14.594 2°54.867 14.8212 0.028933 0.174219 -1.488105
2009-11-30 07:39:11 51°14.609 2°54.861 14.8947 0.029345 0.176664 -1.488105
2009-11-30 07:39:16 51°14.624 2°54.856 14.9251 0.029345 0.176664 -1.488105
2009-11-30 07:39:21 51°14.639 2°54.851 14.8234 0.029036 0.174779 -1.488105
2009-11-30 07:39:25 51°14.651 2°54.846 14.8817 0.029036 0.174786 -1.488105
2009-11-30 07:39:31 51°14.669 2°54.84 14.8799 0.029036 0.174786 -1.488105
2009-11-30 07:39:36 51°14.684 2°54.834 14.8822 0.028933 0.174161 -1.488105
2009-11-30 07:39:41 51°14.699 2°54.829 14.9088 0.029036 0.174793 -1.488105
2009-11-30 07:39:45 51°14.711 2°54.825 14.8122 0.029036 0.174793 -1.488105
2009-11-30 07:39:51 51°14.73 2°54.818 14.864 0.029036 0.174807 -1.488105
2009-11-30 07:39:56 51°14.745 2°54.813 14.8184 0.028933 0.174157 -1.488105
2009-11-30 07:40:01 51°14.761 2°54.808 14.8506 0.029036 0.174821 -1.488105
2009-11-30 07:40:06 51°14.776 2°54.803 14.8084 0.029036 0.1748 -1.488105
2009-11-30 07:40:11 51°14.791 2°54.798 14.8004 0.029036 0.174817 -1.488105
2009-11-30 07:40:16 51°14.807 2°54.793 14.8195 0.029036 0.174817 -1.488105
2009-11-30 07:40:21 51°14.822 2°54.788 14.7857 0.029242 0.176097 -1.488105
2009-11-30 07:40:26 51°14.838 2°54.783 14.772 0.029036 0.174852 -1.488105
2009-11-30 07:40:31 51°14.853 2°54.778 14.822 0.029036 0.174876 -1.488105
2009-11-30 07:40:36 51°14.868 2°54.772 14.7874 0.029036 0.174879 -1.488105
2009-11-30 07:40:41 51°14.884 2°54.767 14.7853 0.029036 0.17489 -1.488105
2009-11-30 07:40:45 51°14.896 2°54.763 14.821 0.029036 0.17489 -1.488105
2009-11-30 07:40:51 51°14.914 2°54.757 14.8144 0.028933 0.174226 -1.488105
2009-11-30 07:40:56 51°14.929 2°54.752 14.8199 0.028933 0.174233 -1.488105
2009-11-30 07:41:01 51°14.945 2°54.747 14.8323 0.029036 0.174886 -1.488105
2009-11-30 07:41:06 51°14.96 2°54.742 14.8271 0.028933 0.174274 -1.488105
2009-11-30 07:41:11 51°14.976 2°54.736 14.761 0.029036 0.174924 -1.488105
2009-11-30 07:41:16 51°14.991 2°54.731 14.7878 0.029036 0.174924 -1.488105
2009-11-30 07:41:21 51°15.006 2°54.726 14.82 0.028933 0.174308 -1.488105
2009-11-30 07:41:26 51°15.022 2°54.72 14.824 0.029036 0.174948 -1.488105
2009-11-30 07:41:31 51°15.037 2°54.716 14.7982 0.029036 0.174952 -1.488105
2009-11-30 07:41:36 51°15.052 2°54.71 14.7863 0.028933 0.174291 -1.488105
2009-11-30 07:41:41 51°15.068 2°54.705 14.7967 0.028933 0.174308 -1.488105
2009-11-30 07:41:46 51°15.083 2°54.7 14.7467 0.028933 0.174308 -1.488105
2009-11-30 07:41:51 51°15.098 2°54.695 14.7908 0.02883 0.173689 -1.488105
2009-11-30 07:41:56 51°15.113 2°54.689 14.7898 0.02883 0.173706 -1.488105
2009-11-30 07:42:01 51°15.129 2°54.684 14.806 0.028933 0.174339 -1.488105
2009-11-30 07:42:05 51°15.141 2°54.68 14.7469 0.029036 0.174993 -1.488105
2009-11-30 07:42:11 51°15.159 2°54.674 14.7932 0.028933 0.174384 -1.488105
2009-11-30 07:42:16 51°15.174 2°54.669 14.7733 0.028933 0.174384 -1.488105
2009-11-30 07:42:21 51°15.189 2°54.663 14.7383 0.029551 0.178176 -1.488105
2009-11-30 07:42:26 51°15.205 2°54.658 14.7676 0.028933 0.174418 -1.488105
2009-11-30 07:42:32 51°15.223 2°54.652 14.7836 0.028933 0.174449 -1.488105
2009-11-30 07:42:37 51°15.239 2°54.647 14.7379 0.029139 0.175713 -1.488105
2009-11-30 07:42:41 51°15.251 2°54.643 14.7745 0.028933 0.174473 -1.488105
2009-11-30 07:42:46 51°15.266 2°54.638 14.7611 0.028933 0.174473 -1.488105
2009-11-30 07:42:51 51°15.282 2°54.632 14.7223 0.029036 0.175114 -1.488105
2009-11-30 07:42:56 51°15.297 2°54.627 14.7382 0.028933 0.174511 -1.488105
2009-11-30 07:43:01 51°15.312 2°54.621 14.7899 0.028933 0.174521 -1.488105
2009-11-30 07:43:06 51°15.327 2°54.617 14.7509 0.028933 0.17459 -1.488105
2009-11-30 07:43:11 51°15.343 2°54.611 14.7341 0.029242 0.176535 -1.488105
2009-11-30 07:43:16 51°15.358 2°54.607 14.6867 0.029242 0.176535 -1.488105
2009-11-30 07:43:21 51°15.374 2°54.601 14.7012 0.029036 0.175315 -1.488105
2009-11-30 07:43:26 51°15.389 2°54.596 14.7158 0.028933 0.174687 -1.488105
2009-11-30 07:43:31 51°15.404 2°54.59 14.7075 0.029242 0.176612 -1.488105
2009-11-30 07:43:36 51°15.419 2°54.585 14.7406 0.028933 0.174728 -1.488105
2009-11-30 07:43:41 51°15.435 2°54.578 14.7612 0.02883 0.174131 -1.488105
2009-11-30 07:43:46 51°15.45 2°54.573 14.7603 0.02883 0.174131 -1.488105
2009-11-30 07:43:51 51°15.465 2°54.567 14.7524 0.028933 0.174791 -1.488105
2009-11-30 07:43:56 51°15.48 2°54.561 14.7505 0.028933 0.174787 -1.488105
2009-11-30 07:44:01 51°15.495 2°54.556 14.7151 0.028933 0.174797 -1.488105
2009-11-30 07:44:06 51°15.51 2°54.55 14.7604 0.02883 0.17419 -1.488105
2009-11-30 07:44:10 51°15.523 2°54.545 14.7634 0.02883 0.174211 -1.488105
2009-11-30 07:44:16 51°15.541 2°54.539 14.7547 0.02883 0.174211 -1.488105
2009-11-30 07:44:22 51°15.559 2°54.532 14.7419 0.02883 0.174224 -1.488105
2009-11-30 07:44:26 51°15.571 2°54.527 14.7208 0.02883 0.174252 -1.522929
2009-11-30 07:44:31 51°15.587 2°54.521 14.7369 0.02883 0.174266 -1.488105
2009-11-30 07:44:36 51°15.602 2°54.516 14.7288 0.02883 0.174276 -1.488105
2009-11-30 07:44:41 51°15.617 2°54.51 14.7155 0.028933 0.174932 -1.488105
2009-11-30 07:44:46 51°15.632 2°54.504 14.743 0.028933 0.174932 -1.488105
2009-11-30 07:44:52 51°15.651 2°54.497 14.7172 0.02883 0.174321 -1.488105
2009-11-30 07:44:56 51°15.663 2°54.492 14.7659 0.02883 0.174342 -1.488105
2009-11-30 07:45:01 51°15.678 2°54.487 14.7494 0.02883 0.174366 -1.488105
2009-11-30 07:45:06 51°15.693 2°54.481 14.7384 0.02883 0.174387 -1.488105
2009-11-30 07:45:11 51°15.709 2°54.475 14.7444 0.02883 0.17438 -1.488105
2009-11-30 07:45:16 51°15.724 2°54.47 14.7592 0.02883 0.17438 -1.488105
2009-11-30 07:45:21 51°15.739 2°54.464 14.7231 0.02883 0.174414 -1.488105
2009-11-30 07:45:26 51°15.755 2°54.458 14.7675 0.02883 0.174428 -1.488105
2009-11-30 07:45:31 51°15.77 2°54.452 14.778 0.02883 0.174456 -1.488105
2009-11-30 07:45:36 51°15.785 2°54.446 14.7459 0.02883 0.174473 -1.488105
2009-11-30 07:45:41 51°15.8 2°54.441 14.7608 0.02883 0.174477 -1.488105
2009-11-30 07:45:46 51°15.816 2°54.435 14.7752 0.02883 0.174477 -1.488105
2009-11-30 07:45:51 51°15.831 2°54.429 14.7364 0.029036 0.175767 -1.488105
2009-11-30 07:45:56 51°15.846 2°54.423 14.7579 0.02883 0.174539 -1.488105
2009-11-30 07:46:02 51°15.864 2°54.417 14.7244 0.02883 0.174563 -1.488105
2009-11-30 07:46:06 51°15.876 2°54.413 14.6989 0.028727 0.173951 -1.488105
2009-11-30 07:46:11 51°15.891 2°54.406 14.7364 0.02883 0.174584 -1.488105
2009-11-30 07:46:16 51°15.906 2°54.401 14.7693 0.02883 0.174584 -1.488105
2009-11-30 07:46:22 51°15.924 2°54.394 14.7517 0.029139 0.176544 -1.488105
2009-11-30 07:46:26 51°15.936 2°54.39 14.6992 0.029139 0.176572 -1.488105
2009-11-30 07:46:31 51°15.951 2°54.384 14.7341 0.02883 0.174723 -1.522929
2009-11-30 07:46:35 51°15.963 2°54.38 14.7599 0.02883 0.17474 -1.488105
2009-11-30 07:46:42 51°15.983 2°54.372 14.7615 0.02883 0.17475 -1.488105
2009-11-30 07:46:46 51°15.994 2°54.368 14.7066 0.02883 0.17475 -1.488105
2009-11-30 07:46:52 51°16.01 2°54.362 14.7459 0.02883 0.174778 -1.488105
2009-11-30 07:46:56 51°16.02 2°54.358 14.7375 0.02883 0.174764 -1.488105
2009-11-30 07:47:01 51°16.032 2°54.354 14.7502 0.02883 0.174764 -1.488105
2009-11-30 07:47:06 51°16.043 2°54.35 14.7644 0.028933 0.175395 -1.488105
2009-11-30 07:47:12 51°16.054 2°54.346 14.7633 0.029139 0.176677 -1.488105
2009-11-30 07:47:16 51°16.062 2°54.343 14.7721 0.029139 0.176677 -1.488105
2009-11-30 07:47:21 51°16.071 2°54.341 14.7408 0.029242 0.177354 -1.488105
2009-11-30 07:47:26 51°16.079 2°54.338 14.7741 0.029345 0.178102 -1.488105
2009-11-30 07:47:32 51°16.089 2°54.336 14.7303 0.029242 0.177559 -1.488105
2009-11-30 07:47:37 51°16.097 2°54.334 14.7667 0.029551 0.179512 -1.488105
2009-11-30 07:47:42 51°16.104 2°54.332 14.7755 0.029756 0.180824 -1.488105
2009-11-30 07:47:46 51°16.11 2°54.331 14.7655 0.029756 0.180824 -1.488105
2009-11-30 07:47:52 51°16.118 2°54.329 14.7747 0.029756 0.180842 -1.488105
2009-11-30 07:47:57 51°16.125 2°54.328 14.7537 0.029551 0.17958 -1.488105
2009-11-30 07:48:02 51°16.132 2°54.326 14.764 0.029551 0.179576 -1.488105
2009-11-30 07:48:06 51°16.137 2°54.324 14.7735 0.029962 0.182133 -1.488105
2009-11-30 07:48:11 51°16.144 2°54.323 14.7753 0.029654 0.180198 -1.488105
2009-11-30 07:48:16 51°16.15 2°54.321 14.7591 0.029654 0.180198 -1.488105
2009-11-30 07:48:21 51°16.157 2°54.32 14.7635 0.029756 0.180824 -1.488105
2009-11-30 07:48:26 51°16.165 2°54.317 14.7765 0.029756 0.180842 -1.522929
2009-11-30 07:48:32 51°16.173 2°54.315 14.7509 0.029654 0.180332 -1.488105
2009-11-30 07:48:36 51°16.179 2°54.314 14.7796 0.029756 0.180997 -1.488105
2009-11-30 07:48:42 51°16.187 2°54.311 14.7779 0.029756 0.18099 -1.488105
2009-11-30 07:48:46 51°16.192 2°54.309 14.7659 0.029756 0.18099 -1.488105
2009-11-30 07:48:52 51°16.2 2°54.307 14.795 0.029859 0.181631 -1.488105
2009-11-30 07:48:56 51°16.206 2°54.306 14.7711 0.029859 0.181623 -1.488105
2009-11-30 07:49:01 51°16.213 2°54.303 14.7703 0.029551 0.179673 -1.488105
2009-11-30 07:49:06 51°16.219 2°54.301 14.7617 0.029654 0.180296 -1.488105
2009-11-30 07:49:12 51°16.227 2°54.298 14.7681 0.029859 0.181576 -1.488105
2009-11-30 07:49:16 51°16.231 2°54.297 14.7543 0.029859 0.181576 -1.488105
2009-11-30 07:49:21 51°16.237 2°54.294 14.7639 0.029551 0.179663 -1.488105
2009-11-30 07:49:26 51°16.242 2°54.292 14.7866 0.029654 0.180299 -1.488105
2009-11-30 07:49:32 51°16.247 2°54.29 14.7852 0.029345 0.178383 -1.488105
2009-11-30 07:49:37 51°16.25 2°54.288 14.7524 0.029242 0.17774 -1.488105
2009-11-30 07:49:41 51°16.253 2°54.287 14.7841 0.029756 0.180929 -1.488105
2009-11-30 07:49:46 51°16.255 2°54.286 14.7582 0.029756 0.180929 -1.488105
2009-11-30 07:49:52 51°16.258 2°54.285 14.7889 0.030168 0.183524 -1.488105
2009-11-30 07:49:56 51°16.26 2°54.283 14.7785 0.029859 0.181602 -1.488105
2009-11-30 07:50:02 51°16.263 2°54.282 14.7849 0.029859 0.181602 -1.488105
2009-11-30 07:50:06 51°16.265 2°54.281 14.8029 0.029859 0.181602 -1.522929
2009-11-30 07:50:12 51°16.266 2°54.281 14.7835 0.03058 0.186089 -1.488105
2009-11-30 07:50:17 51°16.268 2°54.28 14.7923 0.03058 0.186089 -1.488105
2009-11-30 07:50:21 51°16.269 2°54.279 14.7906 0.030168 0.183527 -1.488105
2009-11-30 07:50:26 51°16.27 2°54.279 14.7848 0.030065 0.182883 -1.488105
2009-11-30 07:50:31 51°16.272 2°54.278 14.7823 0.030168 0.183513 -1.488105
2009-11-30 07:50:36 51°16.274 2°54.277 14.7525 0.030374 0.184791 -1.488105
2009-11-30 07:50:41 51°16.275 2°54.276 14.7988 0.029859 0.181583 -1.488105
2009-11-30 07:50:46 51°16.276 2°54.276 14.7762 0.029859 0.181583 -1.488105
2009-11-30 07:50:51 51°16.278 2°54.275 14.7849 0.030065 0.182861 -1.488105
2009-11-30 07:50:56 51°16.279 2°54.274 14.7747 0.029962 0.182246 -1.488105
2009-11-30 07:51:01 51°16.281 2°54.273 14.7892 0.030168 0.183535 -1.488105
2009-11-30 07:51:06 51°16.282 2°54.272 14.795 0.029962 0.182253 -1.488105
2009-11-30 07:51:11 51°16.283 2°54.271 14.7824 0.029962 0.182257 -1.488105
2009-11-30 07:51:17 51°16.284 2°54.27 14.7984 0.029962 0.182257 -1.488105
2009-11-30 07:51:21 51°16.285 2°54.27 14.8033 0.029962 0.18226 -1.488105
2009-11-30 07:51:26 51°16.287 2°54.269 14.8013 0.030065 0.18292 -1.488105
2009-11-30 07:51:31 51°16.288 2°54.268 14.8025 0.029962 0.182282 -1.488105
2009-11-30 07:51:36 51°16.289 2°54.267 14.8045 0.029859 0.181642 -1.488105
2009-11-30 07:51:41 51°16.29 2°54.266 14.7945 0.029962 0.182271 -1.488105
2009-11-30 07:51:46 51°16.291 2°54.265 14.8054 0.029962 0.182271 -1.488105
2009-11-30 07:51:51 51°16.292 2°54.264 14.805 0.029859 0.181649 -1.488105
2009-11-30 07:51:56 51°16.293 2°54.263 14.7998 0.030065 0.182931 -1.488105
2009-11-30 07:52:01 51°16.294 2°54.262 14.7861 0.030168 0.183575 -1.488105
2009-11-30 07:52:06 51°16.295 2°54.261 14.8003 0.030065 0.182938 -1.488105
2009-11-30 07:52:11 51°16.296 2°54.26 14.6773 0.029448 0.179105 -1.488105
2009-11-30 07:52:17 51°16.297 2°54.259 14.6921 0.029448 0.179105 -1.488105
2009-11-30 07:52:21 51°16.298 2°54.259 14.8638 0.029036 0.176602 -1.488105
2009-11-30 07:52:26 51°16.299 2°54.258 14.8537 0.028933 0.176036 -1.488105
2009-11-30 07:52:31 51°16.3 2°54.257 14.7561 0.029139 0.177341 -1.488105
2009-11-30 07:52:37 51°16.301 2°54.256 14.7116 0.032535 0.198706 -1.488105
2009-11-30 07:52:42 51°16.302 2°54.255 14.7591 0.032329 0.197463 -1.488105
2009-11-30 07:52:46 51°16.303 2°54.254 14.8463 0.032329 0.197463 -1.488105
2009-11-30 07:52:51 51°16.304 2°54.254 14.8682 0.029448 0.179511 -1.488105
2009-11-30 07:52:57 51°16.305 2°54.252 14.8701 0.029242 0.178235 -1.488105
2009-11-30 07:53:01 51°16.305 2°54.252 14.8483 0.029139 0.177597 -1.488105
2009-11-30 07:53:06 51°16.306 2°54.251 14.8853 0.029036 0.176856 -1.488105
2009-11-30 07:53:11 51°16.307 2°54.25 14.8637 0.029036 0.176899 -1.488105
2009-11-30 07:53:17 51°16.308 2°54.249 14.8792 0.029036 0.176899 -1.488105
2009-11-30 07:53:21 51°16.308 2°54.248 14.8672 0.029036 0.176924 -1.488105
2009-11-30 07:53:26 51°16.309 2°54.247 14.8905 0.028933 0.1763 -1.488105
2009-11-30 07:53:31 51°16.31 2°54.247 14.8763 0.028933 0.176286 -1.488105
2009-11-30 07:53:36 51°16.311 2°54.246 14.9025 0.028933 0.1763 -1.488105
2009-11-30 07:53:41 51°16.311 2°54.245 14.8729 0.02883 0.17568 -1.488105
2009-11-30 07:53:46 51°16.312 2°54.244 14.8729 0.02883 0.17568 -1.488105
2009-11-30 07:53:51 51°16.313 2°54.244 14.8723 0.02883 0.175627 -1.488105
2009-11-30 07:53:56 51°16.313 2°54.243 14.885 0.02883 0.175641 -1.488105
2009-11-30 07:54:01 51°16.314 2°54.242 14.8905 0.02883 0.175645 -1.488105
2009-11-30 07:54:06 51°16.315 2°54.242 14.9039 0.02883 0.175634 -1.488105
2009-11-30 07:54:11 51°16.315 2°54.241 14.9096 0.028727 0.175018 -1.488105
2009-11-30 07:54:16 51°16.316 2°54.24 14.9009 0.028727 0.175018 -1.488105
2009-11-30 07:54:21 51°16.316 2°54.239 14.9165 0.028727 0.175025 -1.488105
2009-11-30 07:54:26 51°16.317 2°54.239 14.9321 0.028727 0.175001 -1.488105
2009-11-30 07:54:31 51°16.317 2°54.238 14.948 0.028727 0.174994 -1.488105
2009-11-30 07:54:36 51°16.318 2°54.238 14.9697 0.028727 0.175029 -1.488105
2009-11-30 07:54:41 51°16.319 2°54.237 14.9484 0.028727 0.175067 -1.488105
2009-11-30 07:54:46 51°16.319 2°54.237 14.9274 0.028727 0.175067 -1.488105
2009-11-30 07:54:51 51°16.32 2°54.236 14.9632 0.028727 0.175018 -1.488105
2009-11-30 07:54:57 51°16.321 2°54.236 14.9569 0.028624 0.174353 -1.488105
2009-11-30 07:55:01 51°16.322 2°54.235 14.9554 0.028624 0.174336 -1.488105
2009-11-30 07:55:06 51°16.322 2°54.234 14.9692 0.028624 0.174329 -1.488105
2009-11-30 07:55:11 51°16.323 2°54.234 14.9521 0.028624 0.174329 -1.488105
2009-11-30 07:55:16 51°16.323 2°54.234 14.944 0.028624 0.174329 -1.488105
2009-11-30 07:55:21 51°16.323 2°54.233 14.9754 0.028624 0.174315 -1.488105
2009-11-30 07:55:26 51°16.324 2°54.233 14.9558 0.028624 0.174311 -1.488105
2009-11-30 07:55:31 51°16.325 2°54.232 14.9525 0.028624 0.174311 -1.488105
2009-11-30 07:55:36 51°16.325 2°54.232 14.9452 0.028624 0.174297 -1.488105
2009-11-30 07:55:41 51°16.326 2°54.231 14.9831 0.028624 0.174308 -1.488105
2009-11-30 07:55:46 51°16.326 2°54.231 14.9524 0.028624 0.174308 -1.488105
2009-11-30 07:55:51 51°16.326 2°54.231 14.9671 0.028624 0.174322 -1.488105
2009-11-30 07:55:56 51°16.327 2°54.23 14.9543 0.028624 0.174311 -1.488105
2009-11-30 07:56:01 51°16.328 2°54.23 14.9816 0.028624 0.17429 -1.488105
2009-11-30 07:56:07 51°16.328 2°54.229 14.9579 0.028624 0.174283 -1.488105
2009-11-30 07:56:11 51°16.329 2°54.229 14.9856 0.028727 0.174896 -1.488105
2009-11-30 07:56:17 51°16.329 2°54.229 14.9669 0.028727 0.174896 -1.488105
2009-11-30 07:56:21 51°16.329 2°54.229 14.9876 0.028727 0.17491 -1.488105
2009-11-30 07:56:26 51°16.33 2°54.228 14.9835 0.028624 0.174266 -1.488105
2009-11-30 07:56:31 51°16.33 2°54.228 14.9777 0.028624 0.174262 -1.488105
2009-11-30 07:56:37 51°16.331 2°54.228 14.9785 0.028624 0.174238 -1.488105
2009-11-30 07:56:41 51°16.331 2°54.228 14.9784 0.028624 0.174234 -1.488105
2009-11-30 07:56:46 51°16.331 2°54.227 14.9812 0.028624 0.174234 -1.488105
2009-11-30 07:56:51 51°16.332 2°54.227 14.9887 0.028624 0.174238 -1.488105
2009-11-30 07:56:57 51°16.332 2°54.227 14.9885 0.02883 0.175519 -1.488105
2009-11-30 07:57:01 51°16.332 2°54.226 14.9844 0.028727 0.174892 -1.488105
2009-11-30 07:57:06 51°16.333 2°54.226 14.9951 0.028727 0.174875 -1.488105
2009-11-30 07:57:11 51°16.333 2°54.226 14.9958 0.028727 0.174882 -1.488105
2009-11-30 07:57:16 51°16.334 2°54.226 15.0139 0.028727 0.174882 -1.488105
2009-11-30 07:57:22 51°16.334 2°54.225 14.9865 0.028624 0.174252 -1.488105
2009-11-30 07:57:25 51°16.335 2°54.225 15.0167 0.029139 0.177419 -1.488105
2009-11-30 07:57:31 51°16.335 2°54.225 15.0063 0.028727 0.174882 -1.488105
2009-11-30 07:57:36 51°16.335 2°54.225 15.012 0.028727 0.174885 -1.488105
2009-11-30 07:57:42 51°16.335 2°54.225 15.0025 0.028624 0.17428 -1.488105
2009-11-30 07:57:46 51°16.336 2°54.225 15.0303 0.028624 0.17428 -1.488105
2009-11-30 07:57:51 51°16.336 2°54.225 15.0148 0.028624 0.17429 -1.488105
2009-11-30 07:57:56 51°16.336 2°54.225 15.0092 0.028624 0.174297 -1.488105
2009-11-30 07:58:01 51°16.337 2°54.225 15.0326 0.028727 0.174931 -1.522929
2009-11-30 07:58:06 51°16.337 2°54.225 15.0191 0.02883 0.17555 -1.488105
2009-11-30 07:58:11 51°16.337 2°54.224 15.0244 0.028624 0.174259 -1.488105
2009-11-30 07:58:16 51°16.338 2°54.224 15.0274 0.028624 0.174259 -1.488105
2009-11-30 07:58:21 51°16.338 2°54.224 15.021 0.028727 0.174903 -1.488105
2009-11-30 07:58:26 51°16.338 2°54.224 15.0294 0.02883 0.175554 -1.488105
2009-11-30 07:58:32 51°16.339 2°54.224 15.0348 0.028624 0.174287 -1.488105
2009-11-30 07:58:36 51°16.339 2°54.224 15.0475 0.028727 0.174927 -1.488105
2009-11-30 07:58:41 51°16.339 2°54.224 15.0366 0.028624 0.174297 -1.488105
2009-11-30 07:58:46 51°16.34 2°54.224 15.037 0.028624 0.174297 -1.488105
2009-11-30 07:58:51 51°16.34 2°54.225 15.0408 0.028624 0.174283 -1.522929
2009-11-30 07:58:56 51°16.341 2°54.225 15.0388 0.028624 0.174294 -1.488105
2009-11-30 07:59:01 51°16.341 2°54.225 15.0489 0.028727 0.174945 -1.488105
2009-11-30 07:59:06 51°16.342 2°54.225 15.0418 0.028624 0.174304 -1.522929
2009-11-30 07:59:11 51°16.342 2°54.225 15.061 0.028624 0.174308 -1.488105
2009-11-30 07:59:17 51°16.343 2°54.225 15.0513 0.028624 0.174308 -1.488105
2009-11-30 07:59:21 51°16.343 2°54.225 15.0825 0.028624 0.174311 -1.522929
2009-11-30 07:59:26 51°16.343 2°54.225 15.0517 0.028624 0.174301 -1.488105
2009-11-30 07:59:31 51°16.344 2°54.225 15.089 0.029139 0.177501 -1.488105
2009-11-30 07:59:36 51°16.344 2°54.225 15.0639 0.02883 0.175599 -1.488105
2009-11-30 07:59:42 51°16.345 2°54.225 15.0958 0.028624 0.174339 -1.488105
2009-11-30 07:59:46 51°16.345 2°54.225 15.0831 0.028624 0.174339 -1.488105
2009-11-30 07:59:51 51°16.346 2°54.225 15.074 0.028624 0.174342 -1.488105
2009-11-30 07:59:56 51°16.346 2°54.226 15.0803 0.028727 0.174987 -1.488105
2009-11-30 08:00:02 51°16.347 2°54.226 15.0886 0.028727 0.17499 -1.488105
2009-11-30 08:00:05 51°16.347 2°54.226 15.0789 0.028624 0.17436 -1.488105
2009-11-30 08:00:11 51°16.347 2°54.226 15.0876 0.028624 0.17437 -1.488105
2009-11-30 08:00:15 51°16.348 2°54.226 15.0917 0.028624 0.17437 -1.488105
2009-11-30 08:00:21 51°16.349 2°54.226 15.0879 0.028522 0.173737 -1.488105
2009-11-30 08:00:26 51°16.349 2°54.227 15.1 0.028624 0.174374 -1.488105
2009-11-30 08:00:31 51°16.35 2°54.227 15.0967 0.028522 0.173751 -1.488105
2009-11-30 08:00:36 51°16.35 2°54.227 15.1021 0.028522 0.173744 -1.488105
2009-11-30 08:00:41 51°16.35 2°54.227 15.094 0.028522 0.173744 -1.488105
2009-11-30 08:00:46 51°16.351 2°54.227 15.1114 0.028522 0.173744 -1.488105
2009-11-30 08:00:52 51°16.352 2°54.228 15.1018 0.028522 0.173751 -1.488105
2009-11-30 08:00:57 51°16.352 2°54.228 15.105 0.028624 0.174388 -1.488105
2009-11-30 08:01:01 51°16.352 2°54.228 15.1031 0.028624 0.174398 -1.488105
2009-11-30 08:01:06 51°16.353 2°54.227 15.108 0.028624 0.174405 -1.488105
2009-11-30 08:01:11 51°16.353 2°54.226 15.0983 0.028624 0.174416 -1.522929
2009-11-30 08:01:16 51°16.354 2°54.224 15.1068 0.028624 0.174416 -1.522929
2009-11-30 08:01:21 51°16.354 2°54.221 15.1078 0.029859 0.182127 -1.488105
2009-11-30 08:01:26 51°16.354 2°54.216 15.0974 0.029962 0.182799 -1.488105
2009-11-30 08:01:31 51°16.354 2°54.211 15.1255 0.030374 0.185398 -1.488105
2009-11-30 08:01:37 51°16.353 2°54.203 15.1261 0.029139 0.177679 -1.488105
2009-11-30 08:01:41 51°16.353 2°54.196 15.1426 0.028727 0.175109 -1.488105
2009-11-30 08:01:46 51°16.353 2°54.188 15.1421 0.028727 0.175109 -1.488105
2009-11-30 08:01:51 51°16.353 2°54.178 15.1604 0.028624 0.174461 -1.488105
2009-11-30 08:01:56 51°16.353 2°54.168 15.156 0.028624 0.174461 -1.488105
2009-11-30 08:02:01 51°16.355 2°54.157 15.1556 0.028522 0.173782 -1.488105
2009-11-30 08:02:06 51°16.357 2°54.146 15.1592 0.028522 0.17381 -1.488105
2009-11-30 08:02:10 51°16.359 2°54.137 15.1656 0.028522 0.173827 -1.488105
2009-11-30 08:02:16 51°16.364 2°54.124 15.1615 0.028522 0.173827 -1.488105
2009-11-30 08:02:22 51°16.369 2°54.113 15.1627 0.028522 0.173869 -1.488105
2009-11-30 08:02:26 51°16.374 2°54.105 15.1677 0.028522 0.173883 -1.522929
2009-11-30 08:02:31 51°16.38 2°54.097 15.161 0.028727 0.175176 -1.488105
2009-11-30 08:02:36 51°16.387 2°54.089 15.1591 0.028933 0.176477 -1.488105
2009-11-30 08:02:41 51°16.394 2°54.081 15.1604 0.028727 0.175204 -1.522929
2009-11-30 08:02:46 51°16.401 2°54.073 15.1656 0.028727 0.175204 -1.522929
2009-11-30 08:02:51 51°16.408 2°54.064 15.1616 0.028933 0.176491 -1.488105
2009-11-30 08:02:56 51°16.416 2°54.055 15.1672 0.029756 0.181623 -1.488105
2009-11-30 08:03:01 51°16.423 2°54.045 15.168 0.029345 0.179074 -1.488105
2009-11-30 08:03:06 51°16.431 2°54.035 15.1688 0.029551 0.180352 -1.488105
2009-11-30 08:03:11 51°16.439 2°54.023 15.1712 0.029654 0.180988 -1.488105
2009-11-30 08:03:16 51°16.447 2°54.011 15.1741 0.029654 0.180988 -1.488105
2009-11-30 08:03:21 51°16.455 2°53.997 15.1784 0.029448 0.179709 -1.488105
2009-11-30 08:03:25 51°16.461 2°53.985 15.1824 0.029242 0.178421 -1.488105
2009-11-30 08:03:32 51°16.473 2°53.963 15.1814 0.028625 0.174577 -1.488105
2009-11-30 08:03:37 51°16.482 2°53.946 15.1895 0.028624 0.17457 -1.488105
2009-11-30 08:03:41 51°16.488 2°53.932 15.1917 0.028522 0.173932 -1.488105
2009-11-30 08:03:46 51°16.497 2°53.914 15.2083 0.028522 0.173932 -1.488105
2009-11-30 08:03:51 51°16.505 2°53.894 15.1978 0.028522 0.173928 -1.488105
2009-11-30 08:03:56 51°16.514 2°53.876 15.2051 0.028419 0.17329 -1.488105
2009-11-30 08:04:01 51°16.522 2°53.856 15.2036 0.028522 0.173935 -1.488105
2009-11-30 08:04:06 51°16.53 2°53.836 15.2086 0.028419 0.173301 -1.488105
2009-11-30 08:04:11 51°16.539 2°53.816 15.2144 0.028419 0.173301 -1.488105
2009-11-30 08:04:16 51°16.547 2°53.796 15.21 0.028419 0.173301 -1.488105
2009-11-30 08:04:21 51°16.556 2°53.776 15.2235 0.028419 0.173276 -1.488105
2009-11-30 08:04:26 51°16.564 2°53.755 15.2148 0.028419 0.173276 -1.488105
2009-11-30 08:04:31 51°16.573 2°53.736 15.2195 0.028419 0.173263 -1.488105
2009-11-30 08:04:36 51°16.581 2°53.715 15.2223 0.028419 0.173266 -1.488105
2009-11-30 08:04:41 51°16.591 2°53.696 15.2202 0.028316 0.172622 -1.488105
2009-11-30 08:04:46 51°16.599 2°53.676 15.225 0.028316 0.172622 -1.488105
2009-11-30 08:04:50 51°16.607 2°53.66 15.2287 0.028419 0.173259 -1.488105
2009-11-30 08:04:56 51°16.618 2°53.637 15.2286 0.028316 0.172625 -1.488105
2009-11-30 08:05:01 51°16.627 2°53.617 15.2343 0.028316 0.172656 -1.488105
2009-11-30 08:05:06 51°16.637 2°53.598 15.2339 0.028316 0.172673 -1.488105
2009-11-30 08:05:11 51°16.647 2°53.579 15.2394 0.028316 0.172684 -1.488105
2009-11-30 08:05:16 51°16.656 2°53.559 15.2379 0.028316 0.172684 -1.488105
2009-11-30 08:05:21 51°16.666 2°53.541 15.2409 0.028316 0.172698 -1.488105
2009-11-30 08:05:26 51°16.675 2°53.521 15.2438 0.028316 0.172698 -1.488105
2009-11-30 08:05:31 51°16.685 2°53.502 15.2455 0.028316 0.172687 -1.488105
2009-11-30 08:05:37 51°16.697 2°53.48 15.2518 0.028419 0.173342 -1.488105
2009-11-30 08:05:41 51°16.704 2°53.465 15.2552 0.028316 0.172711 -1.488105
2009-11-30 08:05:46 51°16.714 2°53.446 15.2565 0.028316 0.172711 -1.488105
2009-11-30 08:05:51 51°16.724 2°53.427 15.2581 0.028316 0.172718 -1.488105
2009-11-30 08:05:56 51°16.733 2°53.408 15.2601 0.028316 0.172767 -1.488105
2009-11-30 08:06:01 51°16.743 2°53.39 15.2617 0.028316 0.172756 -1.488105
2009-11-30 08:06:06 51°16.753 2°53.371 15.2673 0.028316 0.172781 -1.488105
2009-11-30 08:06:11 51°16.763 2°53.352 15.2664 0.028316 0.172781 -1.488105
2009-11-30 08:06:17 51°16.775 2°53.33 15.2714 0.028316 0.172781 -1.488105
2009-11-30 08:06:21 51°16.783 2°53.314 15.2689 0.028316 0.172767 -1.488105
2009-11-30 08:06:26 51°16.792 2°53.295 15.273 0.028316 0.172767 -1.488105
2009-11-30 08:06:31 51°16.802 2°53.277 15.2752 0.028316 0.172746 -1.488105
2009-11-30 08:06:36 51°16.812 2°53.258 15.2759 0.028316 0.172739 -1.488105
2009-11-30 08:06:41 51°16.821 2°53.239 15.2832 0.028316 0.172756 -1.488105
2009-11-30 08:06:46 51°16.831 2°53.221 15.2824 0.028316 0.172756 -1.488105
2009-11-30 08:06:51 51°16.841 2°53.202 15.2871 0.028316 0.172739 -1.522929
2009-11-30 08:06:56 51°16.85 2°53.183 15.293 0.028419 0.173356 -1.488105
2009-11-30 08:07:02 51°16.862 2°53.161 15.2938 0.028316 0.172729 -1.488105
2009-11-30 08:07:06 51°16.869 2°53.146 15.297 0.028419 0.173363 -1.522929
2009-11-30 08:07:11 51°16.879 2°53.128 15.2979 0.028419 0.173374 -1.488105
2009-11-30 08:07:16 51°16.889 2°53.109 15.3018 0.028419 0.173374 -1.488105
2009-11-30 08:07:21 51°16.898 2°53.091 15.3023 0.028419 0.173381 -1.488105
2009-11-30 08:07:26 51°16.908 2°53.073 15.3055 0.028419 0.173381 -1.488105
2009-11-30 08:07:31 51°16.917 2°53.054 15.3075 0.028419 0.173388 -1.488105
2009-11-30 08:07:36 51°16.926 2°53.035 15.3107 0.028419 0.17337 -1.488105
2009-11-30 08:07:41 51°16.936 2°53.017 15.3121 0.028419 0.17337 -1.488105
2009-11-30 08:07:46 51°16.946 2°52.998 15.3137 0.028419 0.17337 -1.488105
2009-11-30 08:07:51 51°16.956 2°52.98 15.3184 0.028419 0.173381 -1.488105
2009-11-30 08:07:56 51°16.965 2°52.962 15.3192 0.028419 0.173391 -1.488105
2009-11-30 08:08:01 51°16.974 2°52.943 15.3215 0.028419 0.173401 -1.488105
2009-11-30 08:08:06 51°16.984 2°52.924 15.3243 0.028419 0.173408 -1.488105
2009-11-30 08:08:11 51°16.993 2°52.906 15.3252 0.028419 0.173408 -1.488105
2009-11-30 08:08:17 51°17.005 2°52.883 15.3279 0.028419 0.173408 -1.488105
2009-11-30 08:08:21 51°17.013 2°52.868 15.3342 0.028419 0.173415 -1.488105
2009-11-30 08:08:26 51°17.023 2°52.85 15.3347 0.028419 0.173419 -1.488105
2009-11-30 08:08:31 51°17.033 2°52.832 15.3382 0.028419 0.173391 -1.488105
2009-11-30 08:08:36 51°17.043 2°52.814 15.3406 0.028419 0.173401 -1.488105
2009-11-30 08:08:41 51°17.054 2°52.796 15.343 0.028419 0.173412 -1.488105
2009-11-30 08:08:46 51°17.064 2°52.778 15.3448 0.028419 0.173412 -1.488105
2009-11-30 08:08:51 51°17.074 2°52.76 15.3466 0.028419 0.173429 -1.488105
2009-11-30 08:08:57 51°17.086 2°52.739 15.3493 0.028419 0.173443 -1.488105
2009-11-30 08:09:01 51°17.094 2°52.725 15.3521 0.028419 0.173457 -1.488105
2009-11-30 08:09:06 51°17.104 2°52.707 15.3539 0.028522 0.174113 -1.488105
2009-11-30 08:09:11 51°17.115 2°52.689 15.3564 0.028419 0.173488 -1.488105
2009-11-30 08:09:16 51°17.126 2°52.672 15.3589 0.028419 0.173488 -1.488105
2009-11-30 08:09:21 51°17.136 2°52.654 15.3606 0.028419 0.173495 -1.488105
2009-11-30 08:09:26 51°17.147 2°52.637 15.3631 0.028419 0.173495 -1.488105
2009-11-30 08:09:31 51°17.158 2°52.62 15.3661 0.028419 0.173495 -1.488105
2009-11-30 08:09:36 51°17.168 2°52.603 15.3692 0.028419 0.173499 -1.488105
2009-11-30 08:09:41 51°17.179 2°52.586 15.3723 0.028419 0.173499 -1.488105
2009-11-30 08:09:46 51°17.19 2°52.569 15.374 0.028419 0.173499 -1.488105
2009-11-30 08:09:51 51°17.201 2°52.553 15.3755 0.028419 0.173506 -1.488105
2009-11-30 08:09:56 51°17.212 2°52.536 15.3798 0.028419 0.173488 -1.488105
2009-11-30 08:10:01 51°17.224 2°52.521 15.3824 0.028522 0.174123 -1.488105
2009-11-30 08:10:06 51°17.235 2°52.504 15.3857 0.028419 0.173492 -1.488105
2009-11-30 08:10:11 51°17.246 2°52.488 15.3876 0.028419 0.173506 -1.488105
2009-11-30 08:10:17 51°17.26 2°52.469 15.3901 0.028419 0.173506 -1.488105
2009-11-30 08:10:20 51°17.266 2°52.459 15.3906 0.028419 0.173509 -1.488105
2009-11-30 08:10:26 51°17.28 2°52.44 15.3919 0.028419 0.173513 -1.488105
2009-11-30 08:10:31 51°17.292 2°52.425 15.3969 0.028419 0.173516 -1.488105
2009-11-30 08:10:37 51°17.305 2°52.406 15.4 0.028419 0.173527 -1.488105
2009-11-30 08:10:41 51°17.315 2°52.394 15.4027 0.028522 0.174148 -1.488105
2009-11-30 08:10:42 51°17.317 2°52.391 15.4027 0.028522 0.174148 -1.488105
2009-11-30 08:10:55 51°17.348 2°52.351 15.4084 0.028727 0.17544 -1.488105
2009-11-30 08:11:00 51°17.36 2°52.337 15.4106 0.028419 0.173551 -1.488105
2009-11-30 08:11:05 51°17.372 2°52.322 15.4158 0.028419 0.173562 -1.488105
2009-11-30 08:11:10 51°17.384 2°52.307 15.4171 0.028419 0.173562 -1.488105
2009-11-30 08:11:15 51°17.396 2°52.293 15.4203 0.028522 0.174214 -1.488105
2009-11-30 08:11:21 51°17.41 2°52.275 15.4217 0.028419 0.173582 -1.488105
2009-11-30 08:11:25 51°17.42 2°52.263 15.4244 0.028522 0.174221 -1.488105
2009-11-30 08:11:30 51°17.432 2°52.249 15.4276 0.028522 0.174221 -1.488105
2009-11-30 08:11:35 51°17.444 2°52.234 15.4302 0.028419 0.173596 -1.488105
2009-11-30 08:11:41 51°17.458 2°52.217 15.4287 0.028419 0.1736 -1.488105
2009-11-30 08:11:45 51°17.468 2°52.206 15.4363 0.028419 0.1736 -1.488105
2009-11-30 08:11:46 51°17.47 2°52.203 15.4363 0.028419 0.1736 -1.488105
2009-11-30 08:11:59 51°17.503 2°52.166 15.4426 0.028419 0.173638 -1.488105
2009-11-30 08:12:04 51°17.515 2°52.152 15.4484 0.028419 0.173638 -1.488105
2009-11-30 08:12:09 51°17.527 2°52.138 15.4465 0.028625 0.174934 -1.488105
2009-11-30 08:12:14 51°17.539 2°52.124 15.454 0.028727 0.175584 -1.488105
2009-11-30 08:12:19 51°17.552 2°52.11 15.4583 0.028727 0.175599 -1.488105
2009-11-30 08:12:24 51°17.564 2°52.096 15.4536 0.028625 0.174994 -1.488105
2009-11-30 08:12:29 51°17.576 2°52.081 15.4613 0.028419 0.173708 -1.488105
2009-11-30 08:12:34 51°17.589 2°52.067 15.4566 0.028419 0.173708 -1.488105
2009-11-30 08:12:40 51°17.603 2°52.05 15.4671 0.028625 0.174991 -1.488105
2009-11-30 08:12:44 51°17.613 2°52.039 15.4656 0.028727 0.175627 -1.488105
2009-11-30 08:12:49 51°17.625 2°52.025 15.4647 0.028522 0.174354 -1.488105
2009-11-30 08:12:54 51°17.639 2°52.01 15.4718 0.028625 0.17498 -1.488105
2009-11-30 08:12:59 51°17.651 2°51.996 15.4736 0.028727 0.175609 -1.488105
2009-11-30 08:13:05 51°17.665 2°51.98 15.4707 0.028727 0.175609 -1.488105
2009-11-30 08:13:10 51°17.677 2°51.966 15.4793 0.028727 0.175616 -1.488105
2009-11-30 08:13:14 51°17.687 2°51.955 15.477 0.028419 0.173697 -1.488105
2009-11-30 08:13:19 51°17.699 2°51.94 15.4835 0.028419 0.173697 -1.522929
2009-11-30 08:13:23 51°17.708 2°51.93 15.4874 0.028625 0.174987 -1.488105
2009-11-30 08:13:29 51°17.723 2°51.912 15.4859 0.02883 0.176281 -1.488105
2009-11-30 08:13:33 51°17.732 2°51.901 15.4892 0.02883 0.176281 -1.488105
2009-11-30 08:13:39 51°17.747 2°51.883 15.4909 0.02883 0.176281 -1.488105
2009-11-30 08:13:44 51°17.759 2°51.869 15.4982 0.028522 0.174372 -1.488105
2009-11-30 08:13:49 51°17.771 2°51.855 15.4963 0.028727 0.175651 -1.488105
2009-11-30 08:13:53 51°17.781 2°51.844 15.5015 0.028727 0.175655 -1.488105
2009-11-30 08:13:59 51°17.796 2°51.828 15.4972 0.028522 0.174386 -1.488105
2009-11-30 08:14:03 51°17.805 2°51.816 15.5009 0.028522 0.174386 -1.488105
2009-11-30 08:14:09 51°17.819 2°51.8 15.5095 0.028419 0.173746 -1.488105
2009-11-30 08:14:14 51°17.831 2°51.785 15.5099 0.028625 0.175029 -1.488105
2009-11-30 08:14:19 51°17.843 2°51.771 15.5104 0.028727 0.175683 -1.488105
2009-11-30 08:14:24 51°17.855 2°51.757 15.5158 0.028522 0.174411 -1.488105
2009-11-30 08:14:29 51°17.867 2°51.743 15.5102 0.028522 0.174404 -1.488105
2009-11-30 08:14:34 51°17.879 2°51.728 15.5233 0.028522 0.174404 -1.488105
2009-11-30 08:14:39 51°17.891 2°51.714 15.5224 0.028522 0.174414 -1.488105
2009-11-30 08:14:44 51°17.903 2°51.7 15.5244 0.028419 0.173781 -1.488105
2009-11-30 08:14:49 51°17.915 2°51.686 15.522 0.028419 0.173771 -1.488105
2009-11-30 08:14:54 51°17.927 2°51.672 15.5274 0.028727 0.175715 -1.488105
2009-11-30 08:14:59 51°17.939 2°51.657 15.5342 0.028419 0.173792 -1.488105
2009-11-30 08:15:04 51°17.952 2°51.643 15.5421 0.028419 0.173792 -1.488105
2009-11-30 08:15:09 51°17.964 2°51.629 15.5363 0.028419 0.173788 -1.488105
2009-11-30 08:15:14 51°17.975 2°51.615 15.5414 0.028522 0.174442 -1.488105
2009-11-30 08:15:19 51°17.987 2°51.6 15.5435 0.028625 0.175093 -1.488105
2009-11-30 08:15:24 51°17.999 2°51.587 15.5509 0.028727 0.175743 -1.488105
2009-11-30 08:15:29 51°18.011 2°51.573 15.5574 0.028522 0.174477 -1.488105
2009-11-30 08:15:34 51°18.024 2°51.559 15.5466 0.028522 0.174477 -1.488105
2009-11-30 08:15:39 51°18.036 2°51.545 15.5424 0.028419 0.173848 -1.488105
2009-11-30 08:15:44 51°18.048 2°51.53 15.557 0.028419 0.173848 -1.488105
2009-11-30 08:15:50 51°18.062 2°51.513 15.5533 0.028522 0.174491 -1.488105
2009-11-30 08:15:54 51°18.072 2°51.502 15.5643 0.028522 0.174519 -1.488105
2009-11-30 08:15:59 51°18.084 2°51.488 15.5638 0.028316 0.173232 -1.488105
2009-11-30 08:16:04 51°18.096 2°51.473 15.5604 0.028316 0.173232 -1.488105
2009-11-30 08:16:09 51°18.108 2°51.459 15.5703 0.028522 0.174509 -1.488105
2009-11-30 08:16:14 51°18.121 2°51.445 15.563 0.028419 0.173879 -1.488105
2009-11-30 08:16:19 51°18.133 2°51.431 15.5768 0.028316 0.173239 -1.488105
2009-11-30 08:16:24 51°18.144 2°51.416 15.5747 0.028419 0.173883 -1.522929
2009-11-30 08:16:29 51°18.156 2°51.401 15.5808 0.028419 0.173897 -1.488105
2009-11-30 08:16:34 51°18.168 2°51.387 15.5858 0.028419 0.173897 -1.488105
2009-11-30 08:16:39 51°18.18 2°51.372 15.5862 0.028419 0.173907 -1.488105
2009-11-30 08:16:45 51°18.194 2°51.354 15.5917 0.02883 0.176455 -1.488105
2009-11-30 08:16:49 51°18.204 2°51.343 15.5932 0.028625 0.175153 -1.488105
2009-11-30 08:16:54 51°18.215 2°51.328 15.5925 0.028419 0.173865 -1.488105
2009-11-30 08:16:59 51°18.227 2°51.314 15.5788 0.028316 0.173229 -1.488105
2009-11-30 08:17:04 51°18.239 2°51.299 15.5939 0.028316 0.173229 -1.488105
2009-11-30 08:17:09 51°18.251 2°51.285 15.6015 0.028316 0.173239 -1.488105
2009-11-30 08:17:14 51°18.263 2°51.27 15.5902 0.028316 0.173253 -1.488105
2009-11-30 08:17:20 51°18.278 2°51.253 15.6117 0.02883 0.17649 -1.488105
2009-11-30 08:17:24 51°18.288 2°51.241 15.6069 0.028419 0.173953 -1.488105
2009-11-30 08:17:29 51°18.3 2°51.227 15.5965 0.028933 0.177192 -1.488105
2009-11-30 08:17:34 51°18.311 2°51.212 15.5991 0.028933 0.177192 -1.488105
2009-11-30 08:17:39 51°18.322 2°51.198 15.6121 0.028419 0.173977 -1.488105
2009-11-30 08:17:45 51°18.335 2°51.182 15.6125 0.028522 0.174597 -1.488105
2009-11-30 08:17:49 51°18.343 2°51.172 15.6223 0.028625 0.175237 -1.488105
2009-11-30 08:17:54 51°18.353 2°51.162 15.6261 0.028625 0.175251 -1.488105
2009-11-30 08:17:59 51°18.362 2°51.151 15.6321 0.029036 0.177837 -1.488105
2009-11-30 08:18:04 51°18.371 2°51.141 15.635 0.029036 0.177837 -1.488105
2009-11-30 08:18:09 51°18.379 2°51.132 15.6311 0.029242 0.179141 -1.488105
2009-11-30 08:18:14 51°18.387 2°51.122 15.6378 0.029139 0.178518 -1.488105
2009-11-30 08:18:19 51°18.394 2°51.113 15.6379 0.029036 0.177883 -1.488105
2009-11-30 08:18:24 51°18.401 2°51.105 15.6424 0.029345 0.17983 -1.488105
2009-11-30 08:18:30 51°18.409 2°51.095 15.6502 0.029551 0.181121 -1.488105
2009-11-30 08:18:34 51°18.415 2°51.089 15.6517 0.029551 0.181121 -1.488105
2009-11-30 08:18:39 51°18.421 2°51.082 15.6447 0.029448 0.18049 -1.488105
2009-11-30 08:18:44 51°18.427 2°51.075 15.6561 0.029654 0.181778 -1.522929
2009-11-30 08:18:49 51°18.432 2°51.069 15.658 0.029551 0.18114 -1.488105
2009-11-30 08:18:54 51°18.438 2°51.063 15.6591 0.029757 0.182424 -1.488105
2009-11-30 08:18:59 51°18.443 2°51.057 15.6652 0.029962 0.183717 -1.488105
2009-11-30 08:19:04 51°18.447 2°51.051 15.6674 0.029962 0.183717 -1.488105
2009-11-30 08:19:09 51°18.451 2°51.046 15.6696 0.030271 0.185653 -1.488105
2009-11-30 08:19:14 51°18.455 2°51.041 15.6722 0.030168 0.185006 -1.488105
2009-11-30 08:19:19 51°18.459 2°51.036 15.6756 0.030168 0.185006 -1.488105
2009-11-30 08:19:25 51°18.463 2°51.03 15.6812 0.030065 0.184374 -1.522929
2009-11-30 08:19:29 51°18.466 2°51.027 15.6704 0.030168 0.185021 -1.488105
2009-11-30 08:19:33 51°18.469 2°51.023 15.682 0.030168 0.185021 -1.488105
2009-11-30 08:19:38 51°18.472 2°51.018 15.6825 0.030374 0.186318 -1.488105
2009-11-30 08:19:45 51°18.476 2°51.012 15.6918 0.030374 0.186322 -1.488105
2009-11-30 08:19:49 51°18.478 2°51.009 15.6785 0.030271 0.185683 -1.488105
2009-11-30 08:19:54 51°18.481 2°51.005 15.6966 0.030271 0.185687 -1.488105
2009-11-30 08:19:59 51°18.484 2°51.002 15.6995 0.030477 0.186988 -1.488105
2009-11-30 08:20:04 51°18.486 2°50.999 15.6985 0.030477 0.186988 -1.488105
2009-11-30 08:20:09 51°18.488 2°50.997 15.6914 0.030271 0.185705 -1.488105
2009-11-30 08:20:13 51°18.489 2°50.994 15.7047 0.030168 0.185062 -1.488105
2009-11-30 08:20:17 51°18.489 2°50.993 15.7116 0.030065 0.184419 -1.488105
2009-11-30 08:20:23 51°18.49 2°50.992 15.7168 0.030374 0.186371 -1.488105
2009-11-30 08:20:29 51°18.491 2°50.991 15.7042 0.030271 0.185728 -1.488105
2009-11-30 08:20:33 51°18.492 2°50.99 15.6991 0.030271 0.185728 -1.488105
2009-11-30 08:20:37 51°18.493 2°50.99 15.7169 0.030065 0.184434 -1.488105
2009-11-30 08:20:43 51°18.494 2°50.989 15.7301 0.030168 0.18507 -1.488105
2009-11-30 08:20:49 51°18.495 2°50.989 15.7202 0.030374 0.186379 -1.488105
2009-11-30 08:20:53 51°18.495 2°50.988 15.7308 0.030477 0.18703 -1.488105
2009-11-30 08:20:59 51°18.496 2°50.988 15.731 0.030168 0.185092 -1.488105
2009-11-30 08:21:03 51°18.496 2°50.988 15.7357 0.030168 0.185092 -1.488105
2009-11-30 08:21:09 51°18.497 2°50.987 15.741 0.03058 0.187677 -1.488105
2009-11-30 08:21:13 51°18.497 2°50.987 15.7316 0.030374 0.186386 -1.522929
2009-11-30 08:21:19 51°18.498 2°50.987 15.7479 0.030271 0.185739 -1.488105
2009-11-30 08:21:23 51°18.498 2°50.987 15.7352 0.030477 0.187041 -1.522929
2009-11-30 08:21:29 51°18.498 2°50.987 15.7487 0.030271 0.185754 -1.488105
2009-11-30 08:21:33 51°18.499 2°50.987 15.7535 0.030271 0.185754 -1.488105
2009-11-30 08:21:40 51°18.499 2°50.987 15.758 0.030477 0.187049 -1.488105
2009-11-30 08:21:43 51°18.5 2°50.987 15.7486 0.030477 0.18706 -1.488105
2009-11-30 08:21:49 51°18.5 2°50.987 15.7585 0.03058 0.187712 -1.488105
2009-11-30 08:21:54 51°18.501 2°50.987 15.7672 0.030168 0.185126 -1.488105
2009-11-30 08:21:59 51°18.501 2°50.987 15.7677 0.030374 0.186421 -1.488105
2009-11-30 08:22:05 51°18.501 2°50.987 15.7604 0.030374 0.186421 -1.488105
2009-11-30 08:22:09 51°18.501 2°50.987 15.774 0.030477 0.187083 -1.488105
2009-11-30 08:22:13 51°18.502 2°50.987 15.756 0.030271 0.185792 -1.488105
2009-11-30 08:22:19 51°18.502 2°50.987 15.7784 0.030065 0.184494 -1.488105
2009-11-30 08:22:23 51°18.502 2°50.987 15.7748 0.030065 0.184502 -1.488105
2009-11-30 08:22:29 51°18.503 2°50.988 15.7715 0.030168 0.185149 -1.488105
2009-11-30 08:22:33 51°18.503 2°50.988 15.7884 0.030168 0.185149 -1.488105
2009-11-30 08:22:39 51°18.504 2°50.989 15.7688 0.030477 0.187098 -1.488105
2009-11-30 08:22:43 51°18.504 2°50.989 15.7868 0.030065 0.184524 -1.488105
2009-11-30 08:22:49 51°18.504 2°50.99 15.7914 0.030271 0.185826 -1.488105
2009-11-30 08:22:53 51°18.505 2°50.99 15.7867 0.030271 0.185834 -1.488105
2009-11-30 08:22:59 51°18.505 2°50.991 15.8035 0.029962 0.183896 -1.522929
2009-11-30 08:23:03 51°18.506 2°50.991 15.7886 0.029962 0.183896 -1.522929
2009-11-30 08:23:09 51°18.506 2°50.992 15.8056 0.030168 0.18519 -1.488105
2009-11-30 08:23:13 51°18.507 2°50.992 15.786 0.030168 0.185205 -1.488105
2009-11-30 08:23:19 51°18.507 2°50.993 15.8064 0.029859 0.183256 -1.488105
2009-11-30 08:23:23 51°18.508 2°50.993 15.8026 0.030168 0.185197 -1.488105
2009-11-30 08:23:29 51°18.508 2°50.994 15.8115 0.030168 0.185205 -1.488105
2009-11-30 08:23:33 51°18.509 2°50.994 15.7961 0.030168 0.185205 -1.488105
2009-11-30 08:23:39 51°18.509 2°50.995 15.8141 0.029962 0.183925 -1.488105
2009-11-30 08:23:44 51°18.51 2°50.996 15.8118 0.030168 0.18522 -1.488105
2009-11-30 08:23:49 51°18.51 2°50.997 15.8239 0.030374 0.186515 -1.488105
2009-11-30 08:23:53 51°18.51 2°50.997 15.8288 0.029859 0.183301 -1.488105
2009-11-30 08:23:59 51°18.511 2°50.998 15.8333 0.030168 0.185239 -1.488105
2009-11-30 08:24:03 51°18.511 2°50.999 15.7978 0.030168 0.185239 -1.488105
2009-11-30 08:24:09 51°18.512 2°51 15.8345 0.030065 0.18461 -1.488105
2009-11-30 08:24:13 51°18.512 2°51.001 15.8228 0.030065 0.184606 -1.488105
2009-11-30 08:24:19 51°18.513 2°51.002 15.8416 0.030271 0.185898 -1.522929
2009-11-30 08:24:25 51°18.514 2°51.003 15.84 0.030065 0.184614 -1.488105
2009-11-30 08:24:29 51°18.514 2°51.004 15.8447 0.030065 0.184603 -1.488105
2009-11-30 08:24:33 51°18.514 2°51.005 15.8535 0.030065 0.184603 -1.488105
2009-11-30 08:24:39 51°18.515 2°51.006 15.8388 0.030271 0.185894 -1.488105
2009-11-30 08:24:43 51°18.515 2°51.006 15.8559 0.029859 0.183319 -1.488105
2009-11-30 08:24:49 51°18.516 2°51.008 15.8418 0.030065 0.184618 -1.488105
2009-11-30 08:24:53 51°18.516 2°51.009 15.859 0.030065 0.184621 -1.488105
2009-11-30 08:24:59 51°18.517 2°51.01 15.8498 0.030065 0.184625 -1.488105
2009-11-30 08:25:03 51°18.517 2°51.011 15.8655 0.030065 0.184625 -1.488105
2009-11-30 08:25:09 51°18.518 2°51.012 15.8491 0.030271 0.185924 -1.488105
2009-11-30 08:25:13 51°18.519 2°51.013 15.857 0.029757 0.182705 -1.522929
2009-11-30 08:25:19 51°18.519 2°51.015 15.8658 0.029962 0.183996 -1.488105
2009-11-30 08:25:23 51°18.519 2°51.015 15.8774 0.029859 0.183356 -1.488105
2009-11-30 08:25:29 51°18.52 2°51.017 15.8674 0.030168 0.185314 -1.488105
2009-11-30 08:25:33 51°18.521 2°51.018 15.881 0.030168 0.185314 -1.488105
2009-11-30 08:25:39 51°18.521 2°51.019 15.8809 0.029962 0.184019 -1.488105
2009-11-30 08:25:43 51°18.522 2°51.02 15.8921 0.030065 0.184674 -1.488105
2009-11-30 08:25:49 51°18.522 2°51.022 15.8839 0.029962 0.18403 -1.488105
2009-11-30 08:25:53 51°18.523 2°51.023 15.8893 0.029757 0.182739 -1.488105
2009-11-30 08:25:59 51°18.523 2°51.025 15.8951 0.030065 0.184681 -1.488105
2009-11-30 08:26:03 51°18.524 2°51.026 15.8952 0.030065 0.184681 -1.488105
2009-11-30 08:26:09 51°18.525 2°51.027 15.9043 0.030271 0.18597 -1.488105
2009-11-30 08:26:13 51°18.525 2°51.028 15.8821 0.030168 0.185333 -1.488105
2009-11-30 08:26:19 51°18.526 2°51.03 15.9081 0.029962 0.184049 -1.488105
2009-11-30 08:26:25 51°18.526 2°51.032 15.8911 0.030065 0.184708 -1.488105
2009-11-30 08:26:29 51°18.527 2°51.033 15.9292 0.030065 0.184711 -1.488105
2009-11-30 08:26:33 51°18.528 2°51.034 15.9155 0.030065 0.184711 -1.488105
2009-11-30 08:26:39 51°18.528 2°51.035 15.9198 0.030477 0.187308 -1.488105
2009-11-30 08:26:45 51°18.528 2°51.037 15.9226 0.030168 0.185382 -1.488105
2009-11-30 08:26:49 51°18.529 2°51.038 15.9277 0.030477 0.187323 -1.488105
2009-11-30 08:26:53 51°18.529 2°51.039 15.9247 0.030065 0.184734 -1.488105
2009-11-30 08:26:59 51°18.529 2°51.041 15.9216 0.030374 0.186675 -1.488105
2009-11-30 08:27:03 51°18.53 2°51.042 15.9434 0.030374 0.186675 -1.488105
2009-11-30 08:27:09 51°18.531 2°51.044 15.9322 0.030374 0.186678 -1.488105
2009-11-30 08:27:13 51°18.531 2°51.045 15.9277 0.030374 0.186686 -1.488105
2009-11-30 08:27:17 51°18.531 2°51.046 15.9281 0.030271 0.186049 -1.488105
2009-11-30 08:27:24 51°18.532 2°51.048 15.9415 0.03058 0.187991 -1.488105
2009-11-30 08:27:29 51°18.533 2°51.049 15.9463 0.03058 0.187994 -1.488105
2009-11-30 08:27:33 51°18.533 2°51.051 15.9361 0.03058 0.187994 -1.488105
2009-11-30 08:27:39 51°18.533 2°51.052 15.9409 0.030477 0.187354 -1.488105
2009-11-30 08:27:43 51°18.534 2°51.053 15.9373 0.030374 0.186709 -1.488105
2009-11-30 08:27:49 51°18.534 2°51.055 15.9279 0.030374 0.186705 -1.488105
2009-11-30 08:27:53 51°18.535 2°51.056 15.9574 0.030168 0.185412 -1.488105
2009-11-30 08:27:59 51°18.535 2°51.058 15.9598 0.029962 0.18412 -1.488105
2009-11-30 08:28:04 51°18.536 2°51.059 15.9559 0.029962 0.18412 -1.488105
2009-11-30 08:28:09 51°18.536 2°51.061 15.9512 0.029962 0.184124 -1.488105
2009-11-30 08:28:14 51°18.537 2°51.062 15.9713 0.030065 0.184768 -1.488105
2009-11-30 08:28:20 51°18.537 2°51.064 15.9735 0.030168 0.185439 -1.488105
2009-11-30 08:28:24 51°18.538 2°51.065 15.9724 0.029859 0.183509 -1.522929
2009-11-30 08:28:29 51°18.538 2°51.066 15.9775 0.029962 0.18415 -1.488105
2009-11-30 08:28:33 51°18.539 2°51.067 15.988 0.029962 0.18415 -1.488105
2009-11-30 08:28:39 51°18.54 2°51.068 15.9873 0.030271 0.186091 -1.488105
2009-11-30 08:28:45 51°18.541 2°51.068 15.9922 0.030374 0.186754 -1.488105
2009-11-30 08:28:49 51°18.543 2°51.067 16.0055 0.030786 0.189354 -1.488105
2009-11-30 08:28:54 51°18.546 2°51.065 15.9818 0.030991 0.19066 -1.488105
2009-11-30 08:28:59 51°18.548 2°51.063 15.9924 0.03058 0.188063 -1.488105
2009-11-30 08:29:05 51°18.552 2°51.06 15.96 0.03058 0.188063 -1.488105
2009-11-30 08:29:10 51°18.556 2°51.057 15.9893 0.029859 0.183532 -1.488105
2009-11-30 08:29:14 51°18.559 2°51.055 15.9775 0.029654 0.182217 -1.488105
2009-11-30 08:29:19 51°18.564 2°51.053 15.9517 0.029757 0.182847 -1.488105
2009-11-30 08:29:24 51°18.57 2°51.052 15.9936 0.029859 0.183506 -1.488105
2009-11-30 08:29:29 51°18.575 2°51.051 15.9899 0.029036 0.178356 -1.488105
2009-11-30 08:29:34 51°18.581 2°51.051 15.9611 0.029036 0.178356 -1.488105
2009-11-30 08:29:39 51°18.587 2°51.052 15.9764 0.02883 0.177076 -1.488105
2009-11-30 08:29:44 51°18.594 2°51.054 15.9369 0.028727 0.17643 -1.488105
2009-11-30 08:29:50 51°18.601 2°51.059 15.9019 0.02883 0.177058 -1.488105
2009-11-30 08:29:54 51°18.606 2°51.063 15.9368 0.028522 0.175087 -1.488105
2009-11-30 08:29:59 51°18.612 2°51.069 15.9526 0.028316 0.173831 -1.488105
2009-11-30 08:30:05 51°18.618 2°51.078 15.9677 0.028316 0.173831 -1.488105
2009-11-30 08:30:09 51°18.622 2°51.085 15.9956 0.028316 0.173862 -1.488105
2009-11-30 08:30:13 51°18.625 2°51.093 16.0098 0.029757 0.183148 -1.522929
2009-11-30 08:30:19 51°18.63 2°51.105 16.0184 0.030168 0.185828 -1.488105
2009-11-30 08:30:24 51°18.634 2°51.117 16.0398 0.030271 0.186486 -1.488105
2009-11-30 08:30:29 51°18.638 2°51.129 16.0276 0.030271 0.186486 -1.488105
2009-11-30 08:30:34 51°18.643 2°51.142 16.0382 0.030271 0.186486 -1.488105
2009-11-30 08:30:39 51°18.647 2°51.156 16.0044 0.030168 0.185832 -1.488105
2009-11-30 08:30:43 51°18.652 2°51.167 16.0456 0.030271 0.186467 -1.488105
2009-11-30 08:30:48 51°18.657 2°51.183 15.9942 0.029757 0.183215 -1.488105
2009-11-30 08:30:53 51°18.663 2°51.198 16.0381 0.030271 0.186425 -1.488105
2009-11-30 08:30:59 51°18.67 2°51.218 16.0133 0.030271 0.186429 -1.488105
2009-11-30 08:31:04 51°18.677 2°51.234 16.2499 0.030271 0.186429 -1.488105
2009-11-30 08:31:09 51°18.684 2°51.251 15.3996 0.036857 0.228042 -1.488105
2009-11-30 08:31:13 51°18.689 2°51.266 15.4406 0.03624 0.224203 -1.488105
2009-11-30 08:31:19 51°18.699 2°51.287 15.3355 0.036034 0.222917 -1.488105
2009-11-30 08:31:25 51°18.709 2°51.309 15.4599 0.034387 0.212519 -1.488105
2009-11-30 08:31:29 51°18.716 2°51.325 15.6109 0.034387 0.212471 -1.488105
2009-11-30 08:31:33 51°18.724 2°51.338 15.339 0.034387 0.212471 -1.488105
2009-11-30 08:31:39 51°18.733 2°51.363 15.5945 0.03449 0.213069 -1.488105
2009-11-30 08:31:43 51°18.742 2°51.376 15.5203 0.03377 0.208506 -1.488105
2009-11-30 08:31:49 51°18.753 2°51.4 15.5968 0.034284 0.211764 -1.488105
2009-11-30 08:31:53 51°18.762 2°51.414 15.5325 0.03377 0.208515 -1.488105
2009-11-30 08:31:59 51°18.774 2°51.438 15.4639 0.033152 0.204619 -1.488105
2009-11-30 08:32:03 51°18.783 2°51.452 15.6417 0.033152 0.204619 -1.488105
2009-11-30 08:32:09 51°18.796 2°51.474 15.5592 0.03305 0.203953 -1.488105
2009-11-30 08:32:13 51°18.804 2°51.489 15.7205 0.03377 0.20851 -1.488105
2009-11-30 08:32:19 51°18.817 2°51.511 15.6225 0.033873 0.209138 -1.488105
2009-11-30 08:32:23 51°18.825 2°51.527 15.6173 0.033873 0.209143 -1.488105
2009-11-30 08:32:29 51°18.837 2°51.551 15.6543 0.033255 0.20523 -1.488105
2009-11-30 08:32:33 51°18.845 2°51.567 15.6101 0.033255 0.20523 -1.488105
2009-11-30 08:32:39 51°18.855 2°51.593 15.6416 0.033873 0.209117 -1.488105
2009-11-30 08:32:45 51°18.866 2°51.617 15.6344 0.034079 0.210429 -1.488105
2009-11-30 08:32:49 51°18.873 2°51.634 15.6009 0.034284 0.211733 -1.488105
2009-11-30 08:32:53 51°18.879 2°51.651 15.7164 0.033564 0.207194 -1.488105
2009-11-30 08:32:59 51°18.89 2°51.676 15.6363 0.033976 0.209784 -1.488105
2009-11-30 08:33:05 51°18.901 2°51.703 15.6756 0.033976 0.209784 -1.488105
2009-11-30 08:33:09 51°18.908 2°51.72 15.645 0.033461 0.206532 -1.488105
2009-11-30 08:33:13 51°18.915 2°51.738 15.6462 0.033667 0.207835 -1.488105
2009-11-30 08:33:18 51°18.923 2°51.76 15.7063 0.032741 0.202003 -1.488105
2009-11-30 08:33:24 51°18.932 2°51.786 15.6429 0.034079 0.210468 -1.488105
2009-11-30 08:33:29 51°18.939 2°51.809 15.6994 0.033255 0.205272 -1.488105
2009-11-30 08:33:34 51°18.947 2°51.83 15.696 0.033255 0.205272 -1.488105
2009-11-30 08:33:39 51°18.954 2°51.853 15.6636 0.032123 0.198105 -1.488105
2009-11-30 08:33:44 51°18.961 2°51.876 15.6067 0.033358 0.205913 -1.488105
2009-11-30 08:33:50 51°18.969 2°51.903 15.6467 0.034079 0.210577 -1.488105
2009-11-30 08:33:54 51°18.976 2°51.921 15.7121 0.032329 0.199491 -1.488105
2009-11-30 08:33:59 51°18.984 2°51.943 15.681 0.032947 0.203396 -1.488105
2009-11-30 08:34:04 51°18.99 2°51.966 15.7056 0.032947 0.203396 -1.488105
2009-11-30 08:34:09 51°18.997 2°51.989 15.665 0.033667 0.207946 -1.488105
2009-11-30 08:34:13 51°19.001 2°52.008 15.6987 0.032844 0.202776 -1.488105
2009-11-30 08:34:19 51°19.009 2°52.036 15.6335 0.03377 0.208626 -1.488105
2009-11-30 08:34:23 51°19.013 2°52.055 11.2431 0.043649 0.271802 -1.488105
2009-11-30 08:34:29 51°19.02 2°52.084 11.1669 0.051368 0.322362 -1.418457
2009-11-30 08:34:33 51°19.025 2°52.102 11.1175 0.051368 0.322362 -1.418457
2009-11-30 08:34:39 51°19.03 2°52.131 11.0367 0.314562 2.148319 -1.383633
2009-11-30 08:34:43 51°19.036 2°52.15 11.013 3.951139 32.583816 -1.279161
2009-11-30 08:34:48 51°19.04 2°52.175 10.9821 3.686767 29.609294 -1.244337
2009-11-30 08:34:53 51°19.045 2°52.198 10.9704 3.848593 31.876723 -1.244337
2009-11-30 08:34:58 51°19.05 2°52.222 10.9393 3.852023 32.482601 -1.313985
2009-11-30 08:35:03 51°19.054 2°52.247 10.9397 3.852023 32.482601 -1.313985
2009-11-30 08:35:09 51°19.061 2°52.275 10.9336 3.908126 33.634849 -1.383633
2009-11-30 08:35:13 51°19.063 2°52.295 10.9273 3.918812 34.131701 -1.348809
2009-11-30 08:35:18 51°19.069 2°52.319 10.9211 3.882524 34.034402 -1.348809
2009-11-30 08:35:24 51°19.074 2°52.349 10.919 3.870499 34.094469 -1.348809
2009-11-30 08:35:29 51°19.079 2°52.372 10.9075 3.844062 33.951932 -1.348809
2009-11-30 08:35:33 51°19.083 2°52.392 10.9016 3.844062 33.951932 -1.348809
2009-11-30 08:35:38 51°19.088 2°52.416 10.9017 3.836183 33.956422 -1.348809
2009-11-30 08:35:44 51°19.093 2°52.445 10.9029 3.823743 33.886839 -1.348809
2009-11-30 08:35:48 51°19.097 2°52.465 10.8981 3.820944 33.89791 -1.383633
2009-11-30 08:35:53 51°19.102 2°52.49 10.895 3.813688 33.852788 -1.348809
2009-11-30 08:35:58 51°19.107 2°52.514 10.8958 3.808297 33.822052 -1.383633
2009-11-30 08:36:03 51°19.111 2°52.539 10.8994 3.808297 33.822052 -1.383633
2009-11-30 08:36:08 51°19.116 2°52.563 10.8952 3.810578 33.8624 -1.348809
2009-11-30 08:36:13 51°19.121 2°52.588 10.8956 3.809542 33.869926 -1.348809
2009-11-30 08:36:18 51°19.126 2°52.612 10.8926 3.807054 33.854983 -1.383633
2009-11-30 08:36:23 51°19.131 2°52.636 10.8955 3.811926 33.911373 -1.383633
2009-11-30 08:36:28 51°19.136 2°52.661 10.8924 3.809957 33.900761 -1.348809
2009-11-30 08:36:33 51°19.141 2°52.685 10.8888 3.809957 33.900761 -1.348809
2009-11-30 08:36:38 51°19.146 2°52.709 10.8937 3.809749 33.902759 -1.348809
2009-11-30 08:36:43 51°19.151 2°52.733 10.9001 3.807261 33.88376 -1.348809
2009-11-30 08:36:49 51°19.157 2°52.763 10.8914 3.807987 33.895822 -1.348809
2009-11-30 08:36:53 51°19.161 2°52.783 10.8888 3.807261 33.891056 -1.348809
2009-11-30 08:36:59 51°19.167 2°52.812 10.8882 3.805499 33.876007 -1.348809
2009-11-30 08:37:03 51°19.171 2°52.832 10.8911 3.805499 33.876007 -1.348809
2009-11-30 08:37:08 51°19.175 2°52.857 10.8933 3.806639 33.892184 -1.348809
2009-11-30 08:37:13 51°19.18 2°52.882 10.8956 3.804981 33.878972 -1.348809
2009-11-30 08:37:19 51°19.186 2°52.911 10.8921 3.806432 33.894183 -1.348809
2009-11-30 08:37:23 51°19.19 2°52.931 10.8882 3.691683 32.760817 -1.348809
2009-11-30 08:37:28 51°19.195 2°52.956 10.8879 3.808195 33.916541 -1.348809
2009-11-30 08:37:33 51°19.2 2°52.981 10.8826 3.808195 33.916541 -1.348809
2009-11-30 08:37:39 51°19.205 2°53.01 10.8896 3.807884 33.91589 -1.348809
2009-11-30 08:37:44 51°19.21 2°53.035 10.894 3.807676 33.913832 -1.348809
2009-11-30 08:37:49 51°19.215 2°53.06 10.895 3.806018 33.900617 -1.348809
2009-11-30 08:37:53 51°19.219 2°53.079 10.8898 3.80778 33.918921 -1.383633
2009-11-30 08:37:59 51°19.225 2°53.109 10.8948 3.807262 33.916212 -1.348809
2009-11-30 08:38:05 51°19.231 2°53.139 10.8878 3.807262 33.916212 -1.348809
2009-11-30 08:38:09 51°19.234 2°53.159 10.8918 3.807676 33.921953 -1.348809
2009-11-30 08:38:13 51°19.239 2°53.178 10.883 3.806018 33.906299 -1.348809
2009-11-30 08:38:18 51°19.243 2°53.203 10.8922 3.806743 33.913503 -1.348809
2009-11-30 08:38:23 51°19.248 2°53.227 10.8975 3.797621 33.823769 -1.348809
2009-11-30 08:38:29 51°19.254 2°53.257 10.881 3.807158 33.920056 -1.348809
2009-11-30 08:38:33 51°19.258 2°53.277 10.8933 3.807158 33.920056 -1.348809
2009-11-30 08:38:39 51°19.265 2°53.305 10.8839 3.806225 33.912418 -1.348809
2009-11-30 08:38:43 51°19.269 2°53.325 10.8892 3.806847 33.920218 -1.348809
2009-11-30 08:38:49 51°19.276 2°53.354 10.8878 3.806121 33.913825 -1.348809
2009-11-30 08:38:53 51°19.28 2°53.374 10.8922 3.807884 33.929699 -1.348809
2009-11-30 08:38:59 51°19.286 2°53.402 10.8791 3.808091 33.93257 -1.348809
2009-11-30 08:39:03 51°19.291 2°53.422 10.8852 3.808091 33.93257 -1.348809
2009-11-30 08:39:09 51°19.297 2°53.45 10.8905 3.80778 33.930295 -1.348809
2009-11-30 08:39:13 51°19.301 2°53.47 10.8924 3.808091 33.935008 -1.348809
2009-11-30 08:39:19 51°19.309 2°53.498 10.8884 3.807884 33.933762 -1.348809
2009-11-30 08:39:23 51°19.313 2°53.518 10.8914 3.808091 33.937447 -1.348809
2009-11-30 08:39:29 51°19.319 2°53.547 10.89 3.807884 33.935388 -1.348809
2009-11-30 08:39:33 51°19.323 2°53.566 10.8864 3.807884 33.935388 -1.348809
2009-11-30 08:39:39 51°19.33 2°53.595 10.8882 3.808091 33.939073 -1.348809
2009-11-30 08:39:45 51°19.336 2°53.625 10.8793 3.807988 33.93967 -1.383633
2009-11-30 08:39:49 51°19.341 2°53.644 10.8941 3.807884 33.93864 -1.348809
2009-11-30 08:39:53 51°19.345 2°53.663 10.881 3.807884 33.939454 -1.348809
2009-11-30 08:39:59 51°19.352 2°53.692 10.8873 3.807677 33.936581 -1.348809
2009-11-30 08:40:05 51°19.358 2°53.722 10.8831 3.807677 33.936581 -1.348809
2009-11-30 08:40:09 51°19.363 2°53.741 10.8893 3.807573 33.936365 -1.348809
2009-11-30 08:40:13 51°19.366 2°53.761 10.8972 3.807262 33.934089 -1.348809
2009-11-30 08:40:17 51°19.371 2°53.78 10.8786 3.807366 33.936745 -1.348809
2009-11-30 08:40:25 51°19.378 2°53.82 10.8918 3.807366 33.935932 -1.348809
2009-11-30 08:40:29 51°19.384 2°53.839 10.8899 3.803012 33.893503 -1.348809
2009-11-30 08:40:33 51°19.386 2°53.859 10.8978 3.803012 33.893503 -1.348809
2009-11-30 08:40:39 51°19.394 2°53.888 10.9009 3.805707 33.921083 -1.348809
2009-11-30 08:40:43 51°19.397 2°53.908 10.8962 3.804774 33.911004 -1.348809
2009-11-30 08:40:49 51°19.404 2°53.936 10.9151 3.804359 33.906074 -1.348809
2009-11-30 08:40:54 51°19.408 2°53.961 10.8809 3.804774 33.911817 -1.348809
2009-11-30 08:40:59 51°19.413 2°53.985 10.9253 3.804152 33.904827 -1.348809
2009-11-30 08:41:03 51°19.418 2°54.004 10.8872 3.804152 33.904827 -1.348809
2009-11-30 08:41:08 51°19.422 2°54.029 10.884 3.806225 33.92298 -1.348809
2009-11-30 08:41:13 51°19.428 2°54.053 10.89 3.804463 33.903042 -1.348809
2009-11-30 08:41:19 51°19.434 2°54.082 10.8769 3.805707 33.91377 -1.348809
2009-11-30 08:41:23 51°19.438 2°54.101 10.8894 3.805499 33.910087 -1.348809
2009-11-30 08:41:29 51°19.445 2°54.13 10.8911 3.803944 33.896271 -1.348809
2009-11-30 08:41:33 51°19.449 2°54.149 10.8945 3.803944 33.896271 -1.348809
2009-11-30 08:41:39 51°19.455 2°54.179 10.882 3.804981 33.909001 -1.348809
2009-11-30 08:41:43 51°19.46 2°54.198 10.8795 3.804359 33.906886 -1.348809
2009-11-30 08:41:49 51°19.466 2°54.227 10.8754 3.803737 33.900709 -1.348809
2009-11-30 08:41:54 51°19.471 2°54.251 10.873 3.803012 33.896751 -1.348809
2009-11-30 08:41:59 51°19.476 2°54.276 10.8744 3.803323 33.900653 -1.383633
2009-11-30 08:42:04 51°19.482 2°54.301 10.8656 3.803323 33.900653 -1.383633
2009-11-30 08:42:10 51°19.487 2°54.33 10.8847 3.80156 33.88315 -1.348809
2009-11-30 08:42:13 51°19.49 2°54.346 10.8564 3.734284 33.216795 -1.348809
2009-11-30 08:42:19 51°19.497 2°54.375 10.842 3.80042 33.876696 -1.348809
2009-11-30 08:42:23 51°19.5 2°54.394 10.8439 3.801353 33.887587 -1.348809
2009-11-30 08:42:29 51°19.507 2°54.425 10.8371 3.798036 33.857073 -1.348809
2009-11-30 08:42:33 51°19.511 2°54.444 10.8362 3.798036 33.857073 -1.348809
2009-11-30 08:42:39 51°19.517 2°54.474 10.8379 3.800524 33.882598 -1.348809
2009-11-30 08:42:43 51°19.521 2°54.493 10.8344 3.800213 33.88357 -1.348809
2009-11-30 08:42:48 51°19.527 2°54.519 10.8324 3.800835 33.897876 -1.348809
2009-11-30 08:42:53 51°19.532 2°54.543 10.8238 3.799176 33.88627 -1.348809
2009-11-30 08:42:59 51°19.539 2°54.572 10.83 3.799384 33.895648 -1.348809
2009-11-30 08:43:03 51°19.544 2°54.591 10.8263 3.799384 33.895648 -1.348809
2009-11-30 08:43:08 51°19.55 2°54.616 10.8182 3.799902 33.907308 -1.348809
2009-11-30 08:43:13 51°19.555 2°54.641 10.817 3.799176 33.903347 -1.348809
2009-11-30 08:43:19 51°19.562 2°54.67 10.8085 3.798658 33.901448 -1.348809
2009-11-30 08:43:23 51°19.567 2°54.69 10.8101 3.798554 33.904486 -1.383633
2009-11-30 08:43:28 51°19.572 2°54.714 10.8049 3.797622 33.898462 -1.348809
2009-11-30 08:43:33 51°19.577 2°54.738 10.8049 3.797622 33.898462 -1.348809
2009-11-30 08:43:39 51°19.584 2°54.768 10.7977 3.797622 33.900903 -1.348809
2009-11-30 08:43:43 51°19.588 2°54.788 10.8027 3.798036 33.909099 -1.348809
2009-11-30 08:43:49 51°19.594 2°54.818 10.7994 3.797103 33.903888 -1.383633
2009-11-30 08:43:53 51°19.599 2°54.837 10.7966 3.795859 33.894768 -1.348809
2009-11-30 08:43:58 51°19.603 2°54.862 10.7882 3.797103 33.910403 -1.348809
2009-11-30 08:44:04 51°19.611 2°54.892 10.7837 3.797103 33.910403 -1.348809
2009-11-30 08:44:08 51°19.615 2°54.911 10.7935 3.794823 33.890967 -1.383633
2009-11-30 08:44:13 51°19.619 2°54.936 10.7804 3.796067 33.905789 -1.383633
2009-11-30 08:44:19 51°19.626 2°54.966 10.7777 3.794512 33.894386 -1.348809
2009-11-30 08:44:24 51°19.632 2°54.991 10.7811 3.794823 33.90074 -1.348809
2009-11-30 08:44:28 51°19.635 2°55.01 10.7722 3.795445 33.910191 -1.348809
2009-11-30 08:44:33 51°19.641 2°55.036 10.7744 3.795445 33.910191 -1.348809
2009-11-30 08:44:37 51°19.645 2°55.056 10.7742 3.794512 33.903348 -1.348809
2009-11-30 08:44:43 51°19.651 2°55.085 10.7686 3.794512 33.907422 -1.383633
2009-11-30 08:44:49 51°19.658 2°55.115 10.769 3.794719 33.912748 -1.348809
2009-11-30 08:44:53 51°19.663 2°55.134 10.7681 3.792128 33.889388 -1.348809
2009-11-30 08:44:59 51°19.669 2°55.164 10.7681 3.79192 33.888953 -1.348809
2009-11-30 08:45:04 51°19.674 2°55.19 10.7628 3.79192 33.888953 -1.348809
2009-11-30 08:45:09 51°19.68 2°55.214 10.7626 3.792646 33.900254 -1.383633
2009-11-30 08:45:13 51°19.684 2°55.234 10.7609 3.792024 33.89569 -1.348809
2009-11-30 08:45:19 51°19.691 2°55.263 10.761 3.792854 33.907211 -1.383633
2009-11-30 08:45:23 51°19.695 2°55.284 10.7637 3.793061 33.910908 -1.348809
2009-11-30 08:45:29 51°19.701 2°55.313 10.7626 3.792128 33.903245 -1.383633
2009-11-30 08:45:33 51°19.706 2°55.333 10.7546 3.792128 33.903245 -1.383633
2009-11-30 08:45:39 51°19.713 2°55.362 10.7531 3.792439 33.907975 -1.383633
2009-11-30 08:45:43 51°19.717 2°55.382 10.7516 3.791713 33.903193 -1.383633
2009-11-30 08:45:48 51°19.723 2°55.406 10.7443 3.791402 33.902541 -1.383633
2009-11-30 08:45:53 51°19.728 2°55.431 10.7495 3.791195 33.901291 -1.348809
2009-11-30 08:45:58 51°19.734 2°55.456 10.7438 3.790884 33.899824 -1.348809
2009-11-30 08:46:03 51°19.739 2°55.481 10.743 3.790884 33.899824 -1.348809
2009-11-30 08:46:08 51°19.746 2°55.505 10.7496 3.789122 33.883897 -1.348809
2009-11-30 08:46:13 51°19.749 2°55.531 10.7389 3.789744 33.891725 -1.348809
2009-11-30 08:46:19 51°19.757 2°55.56 10.739 3.788914 33.885909 -1.383633
2009-11-30 08:46:24 51°19.762 2°55.585 10.7325 3.789536 33.893738 -1.348809
2009-11-30 08:46:28 51°19.767 2°55.604 10.7374 3.788189 33.882756 -1.348809
2009-11-30 08:46:33 51°19.772 2°55.629 10.7301 3.788189 33.882756 -1.348809
2009-11-30 08:46:39 51°19.78 2°55.658 10.7287 3.788293 33.886235 -1.383633
2009-11-30 08:46:44 51°19.785 2°55.683 10.7268 3.788189 33.886834 -1.348809
2009-11-30 08:46:48 51°19.789 2°55.703 10.7327 3.788293 33.889498 -1.348809
2009-11-30 08:46:53 51°19.796 2°55.727 10.7248 3.787567 33.886345 -1.348809
2009-11-30 08:46:58 51°19.801 2°55.752 10.7287 3.786738 33.87971 -1.348809
2009-11-30 08:47:03 51°19.806 2°55.777 10.7194 3.786738 33.87971 -1.348809
2009-11-30 08:47:08 51°19.813 2°55.801 10.72 3.785908 33.874707 -1.348809
2009-11-30 08:47:13 51°19.819 2°55.826 10.7264 3.785701 33.874271 -1.383633
2009-11-30 08:47:18 51°19.824 2°55.851 10.7224 3.78539 33.873619 -1.383633
2009-11-30 08:47:23 51°19.83 2°55.875 10.7189 3.785805 33.879384 -1.348809
2009-11-30 08:47:29 51°19.836 2°55.906 10.7125 3.784457 33.86758 -1.348809
2009-11-30 08:47:33 51°19.841 2°55.925 10.7129 3.784457 33.86758 -1.348809
2009-11-30 08:47:38 51°19.846 2°55.95 10.7081 3.784768 33.872313 -1.348809
2009-11-30 08:47:43 51°19.852 2°55.975 10.705 3.783628 33.862575 -1.383633
2009-11-30 08:47:48 51°19.857 2°56.001 10.7054 3.784146 33.868559 -1.348809
2009-11-30 08:47:53 51°19.862 2°56.026 10.71 3.782902 33.857787 -1.348809
2009-11-30 08:47:58 51°19.868 2°56.051 10.7036 3.782177 33.852998 -1.348809
2009-11-30 08:48:03 51°19.873 2°56.076 10.7021 3.782177 33.852998 -1.348809
2009-11-30 08:48:08 51°19.878 2°56.102 10.6965 3.782384 33.857513 -1.348809
2009-11-30 08:48:13 51°19.884 2°56.126 10.701 3.781762 33.853757 -1.383633
2009-11-30 08:48:18 51°19.889 2°56.152 10.6989 3.780725 33.846682 -1.383633
2009-11-30 08:48:23 51°19.895 2°56.176 10.6963 3.781555 33.856585 -1.348809
2009-11-30 08:48:28 51°19.899 2°56.202 10.692 3.780207 33.844775 -1.348809
2009-11-30 08:48:33 51°19.906 2°56.227 10.6959 3.780207 33.844775 -1.348809
2009-11-30 08:48:37 51°19.91 2°56.247 10.6913 3.780829 33.852611 -1.383633